ACA871 LFPG-CYUL
Flight info
| Callsign | ACA871 |
|---|---|
| Flight time | 8h 36m |
| Altitude | 34000 |
| Route | ELCOB UT300 SENLO UN502 JSY DCT LIZAD DCT LULOX/M082F340 DCT GIPER/N0470F340 DCT LIMRI/M083F360 DCT 52N020W 52N030W 52N040W 50N050W DCT ELSIR/N0482F360 N412A MIILS DCT TIBOS ROCKT3 |
| Aircraft | B77W/H-SDE1E2E3FGHIJ2J3J4J5M1RWXY/LB1D1 |
Departure
| Time | 2026-05-08 13:48 |
|---|---|
| Airport | Charles de Gaulle International Airport (LFPG) |
Arrival
| Time | 2026-05-08 22:25 |
|---|---|
| Airport | Montreal / Pierre Elliott Trudeau International Airport (CYUL) |
| Time | Latitude | Longitude | Altitude | Speed | Heading |
|---|---|---|---|---|---|
| 2026-05-08 13:15 | 49.00183 | 2.56447 | 386 ft | 0 kts | 339° |
| 2026-05-08 13:36 | 49.00165 | 2.56457 | 366 ft | 4 kts | 339° |
| 2026-05-08 13:36 | 49.00140 | 2.56469 | 365 ft | 4 kts | 347° |
| 2026-05-08 13:36 | 49.00119 | 2.56484 | 368 ft | 3 kts | 309° |
| 2026-05-08 13:36 | 49.00108 | 2.56516 | 364 ft | 4 kts | 268° |
| 2026-05-08 13:37 | 49.00112 | 2.56555 | 361 ft | 2 kts | 263° |
| 2026-05-08 13:37 | 49.00113 | 2.56565 | 361 ft | 0 kts | 263° |
| 2026-05-08 13:41 | 49.00112 | 2.56561 | 366 ft | 3 kts | 263° |
| 2026-05-08 13:42 | 49.00107 | 2.56476 | 359 ft | 9 kts | 265° |
| 2026-05-08 13:42 | 49.00103 | 2.56383 | 367 ft | 9 kts | 266° |
| 2026-05-08 13:42 | 49.00098 | 2.56289 | 364 ft | 9 kts | 265° |
| 2026-05-08 13:42 | 49.00092 | 2.56195 | 362 ft | 9 kts | 264° |
| 2026-05-08 13:43 | 49.00085 | 2.56098 | 364 ft | 11 kts | 264° |
| 2026-05-08 13:43 | 49.00077 | 2.55963 | 361 ft | 15 kts | 265° |
| 2026-05-08 13:43 | 49.00073 | 2.55786 | 363 ft | 17 kts | 270° |
| 2026-05-08 13:43 | 49.00048 | 2.55611 | 367 ft | 17 kts | 239° |
| 2026-05-08 13:44 | 48.99969 | 2.55542 | 364 ft | 12 kts | 171° |
| 2026-05-08 13:44 | 48.99891 | 2.55596 | 366 ft | 12 kts | 144° |
| 2026-05-08 13:44 | 48.99842 | 2.55701 | 362 ft | 12 kts | 109° |
| 2026-05-08 13:44 | 48.99801 | 2.55802 | 366 ft | 12 kts | 163° |
| 2026-05-08 13:45 | 48.99733 | 2.55812 | 360 ft | 8 kts | 175° |
| 2026-05-08 13:45 | 48.99723 | 2.55813 | 361 ft | 0 kts | 175° |
| 2026-05-08 13:47 | 48.99712 | 2.55815 | 361 ft | 9 kts | 174° |
| 2026-05-08 13:47 | 48.99649 | 2.55821 | 362 ft | 6 kts | 179° |
| 2026-05-08 13:47 | 48.99611 | 2.55912 | 361 ft | 21 kts | 92° |
| 2026-05-08 13:47 | 48.99629 | 2.56315 | 368 ft | 68 kts | 85° |
| 2026-05-08 13:48 | 48.99689 | 2.57437 | 362 ft | 143 kts | 85° |
| 2026-05-08 13:48 | 48.99780 | 2.59252 | 404 ft | 193 kts | 85° |
| 2026-05-08 13:48 | 48.99876 | 2.61335 | 989 ft | 203 kts | 85° |
| 2026-05-08 13:48 | 49.00011 | 2.63520 | 1732 ft | 208 kts | 85° |
| 2026-05-08 13:49 | 49.00130 | 2.65770 | 2338 ft | 223 kts | 85° |
| 2026-05-08 13:49 | 49.00262 | 2.68242 | 2580 ft | 248 kts | 85° |
| 2026-05-08 13:49 | 49.00406 | 2.70904 | 3255 ft | 255 kts | 85° |
| 2026-05-08 13:49 | 49.00546 | 2.73625 | 4025 ft | 260 kts | 85° |
| 2026-05-08 13:50 | 49.00685 | 2.76388 | 4805 ft | 263 kts | 85° |
| 2026-05-08 13:50 | 49.00703 | 2.79190 | 5465 ft | 267 kts | 96° |
| 2026-05-08 13:50 | 49.00406 | 2.82005 | 6195 ft | 271 kts | 101° |
| 2026-05-08 13:50 | 49.00055 | 2.84830 | 6960 ft | 273 kts | 101° |
| 2026-05-08 13:51 | 48.99721 | 2.87708 | 7595 ft | 279 kts | 100° |
| 2026-05-08 13:51 | 48.99398 | 2.90651 | 8306 ft | 283 kts | 100° |
| 2026-05-08 13:51 | 48.99079 | 2.93634 | 9019 ft | 287 kts | 100° |
| 2026-05-08 13:51 | 48.98737 | 2.96639 | 9687 ft | 288 kts | 106° |
| 2026-05-08 13:52 | 48.97796 | 2.99324 | 10137 ft | 292 kts | 137° |
| 2026-05-08 13:52 | 48.96095 | 3.00996 | 10421 ft | 305 kts | 163° |
| 2026-05-08 13:52 | 48.93939 | 3.01449 | 10609 ft | 325 kts | 185° |
| 2026-05-08 13:52 | 48.91689 | 3.00622 | 10788 ft | 345 kts | 205° |
| 2026-05-08 13:53 | 48.89681 | 2.98530 | 11260 ft | 357 kts | 226° |
| 2026-05-08 13:53 | 48.88271 | 2.95396 | 11932 ft | 365 kts | 246° |
| 2026-05-08 13:53 | 48.87523 | 2.91682 | 12844 ft | 369 kts | 257° |
| 2026-05-08 13:53 | 48.87044 | 2.87834 | 13836 ft | 372 kts | 259° |
| 2026-05-08 13:54 | 48.86606 | 2.83941 | 14666 ft | 376 kts | 259° |
| 2026-05-08 13:54 | 48.86132 | 2.80008 | 15488 ft | 381 kts | 258° |
| 2026-05-08 13:54 | 48.85610 | 2.76046 | 16314 ft | 385 kts | 257° |
| 2026-05-08 13:54 | 48.85047 | 2.72052 | 17135 ft | 389 kts | 256° |
| 2026-05-08 13:55 | 48.84455 | 2.68022 | 17959 ft | 393 kts | 256° |
| 2026-05-08 13:55 | 48.83844 | 2.63958 | 18717 ft | 397 kts | 256° |
| 2026-05-08 13:55 | 48.82591 | 2.55711 | 20155 ft | 404 kts | 257° |
| 2026-05-08 13:56 | 48.81956 | 2.51542 | 20872 ft | 407 kts | 257° |
| 2026-05-08 13:56 | 48.81314 | 2.47332 | 21590 ft | 411 kts | 257° |
| 2026-05-08 13:56 | 48.80668 | 2.43099 | 22276 ft | 412 kts | 258° |
| 2026-05-08 13:56 | 48.80377 | 2.38767 | 22733 ft | 418 kts | 274° |
| 2026-05-08 13:57 | 48.80990 | 2.34450 | 23304 ft | 419 kts | 288° |
| 2026-05-08 13:57 | 48.81914 | 2.30228 | 23868 ft | 423 kts | 287° |
| 2026-05-08 13:57 | 48.82798 | 2.26021 | 24457 ft | 425 kts | 287° |
| 2026-05-08 13:57 | 48.83675 | 2.21739 | 25100 ft | 425 kts | 287° |
| 2026-05-08 13:58 | 48.84542 | 2.17448 | 25699 ft | 425 kts | 288° |
| 2026-05-08 13:58 | 48.85406 | 2.13141 | 26353 ft | 425 kts | 288° |
| 2026-05-08 13:58 | 48.86266 | 2.08838 | 26878 ft | 428 kts | 288° |
| 2026-05-08 13:58 | 48.87133 | 2.04489 | 27347 ft | 431 kts | 289° |
| 2026-05-08 13:59 | 48.88004 | 2.00115 | 27807 ft | 434 kts | 289° |
| 2026-05-08 13:59 | 48.88878 | 1.95711 | 28309 ft | 436 kts | 289° |
| 2026-05-08 13:59 | 48.89754 | 1.91289 | 28783 ft | 438 kts | 289° |
| 2026-05-08 13:59 | 48.90633 | 1.86841 | 29220 ft | 440 kts | 289° |
| 2026-05-08 14:00 | 48.91515 | 1.82370 | 29648 ft | 442 kts | 289° |
| 2026-05-08 14:00 | 48.92382 | 1.77965 | 30216 ft | 440 kts | 289° |
| 2026-05-08 14:00 | 48.93253 | 1.73521 | 30678 ft | 438 kts | 288° |
| 2026-05-08 14:00 | 48.94129 | 1.69048 | 30945 ft | 442 kts | 288° |
| 2026-05-08 14:01 | 48.95005 | 1.64563 | 31320 ft | 442 kts | 288° |
| 2026-05-08 14:01 | 48.95876 | 1.60093 | 31835 ft | 439 kts | 288° |
| 2026-05-08 14:01 | 48.96738 | 1.55656 | 32361 ft | 436 kts | 288° |
| 2026-05-08 14:01 | 48.97594 | 1.51245 | 32824 ft | 434 kts | 288° |
| 2026-05-08 14:02 | 48.98446 | 1.46845 | 33233 ft | 433 kts | 288° |
| 2026-05-08 14:02 | 48.99296 | 1.42446 | 33638 ft | 432 kts | 288° |
| 2026-05-08 14:02 | 49.00141 | 1.38062 | 34047 ft | 431 kts | 288° |
| 2026-05-08 14:03 | 49.01839 | 1.29224 | 34037 ft | 435 kts | 287° |
| 2026-05-08 14:03 | 49.03396 | 1.20338 | 34038 ft | 434 kts | 279° |
| 2026-05-08 14:04 | 49.03720 | 1.11204 | 34043 ft | 434 kts | 274° |
| 2026-05-08 14:04 | 49.03876 | 1.02008 | 34048 ft | 434 kts | 274° |
| 2026-05-08 14:05 | 49.04089 | 0.92809 | 34034 ft | 434 kts | 275° |
| 2026-05-08 14:05 | 49.04342 | 0.83596 | 34023 ft | 435 kts | 274° |
| 2026-05-08 14:06 | 49.04601 | 0.74366 | 34034 ft | 437 kts | 274° |
| 2026-05-08 14:06 | 49.04854 | 0.65095 | 34030 ft | 438 kts | 274° |
| 2026-05-08 14:07 | 49.05098 | 0.55795 | 34030 ft | 439 kts | 274° |
| 2026-05-08 14:07 | 49.05333 | 0.46547 | 34030 ft | 440 kts | 274° |
| 2026-05-08 14:08 | 49.05562 | 0.37234 | 34024 ft | 440 kts | 274° |
| 2026-05-08 14:08 | 49.05783 | 0.27898 | 34029 ft | 440 kts | 274° |
| 2026-05-08 14:09 | 49.05998 | 0.18551 | 34031 ft | 441 kts | 274° |
| 2026-05-08 14:09 | 49.06205 | 0.09202 | 34020 ft | 441 kts | 273° |
| 2026-05-08 14:10 | 49.06405 | -0.00139 | 34027 ft | 441 kts | 273° |
| 2026-05-08 14:10 | 49.06596 | -0.09429 | 34018 ft | 441 kts | 272° |
| 2026-05-08 14:11 | 49.06783 | -0.18843 | 34019 ft | 442 kts | 272° |
| 2026-05-08 14:11 | 49.06960 | -0.28158 | 34018 ft | 442 kts | 272° |
| 2026-05-08 14:12 | 49.07131 | -0.37545 | 34028 ft | 443 kts | 272° |
| 2026-05-08 14:12 | 49.07297 | -0.46945 | 34018 ft | 444 kts | 272° |
| 2026-05-08 14:13 | 49.07454 | -0.56360 | 34021 ft | 444 kts | 272° |
| 2026-05-08 14:13 | 49.07605 | -0.65767 | 34017 ft | 444 kts | 272° |
| 2026-05-08 14:14 | 49.07747 | -0.75178 | 34026 ft | 443 kts | 272° |
| 2026-05-08 14:14 | 49.07883 | -0.84582 | 34011 ft | 444 kts | 272° |
| 2026-05-08 14:15 | 49.08009 | -0.93941 | 34012 ft | 443 kts | 272° |
| 2026-05-08 14:15 | 49.08131 | -1.03391 | 34012 ft | 443 kts | 272° |
| 2026-05-08 14:16 | 49.08245 | -1.12716 | 34016 ft | 442 kts | 272° |
| 2026-05-08 14:16 | 49.08930 | -1.22022 | 34007 ft | 441 kts | 282° |
| 2026-05-08 14:17 | 49.10423 | -1.31096 | 34013 ft | 441 kts | 284° |
| 2026-05-08 14:17 | 49.11920 | -1.40193 | 34012 ft | 443 kts | 283° |
| 2026-05-08 14:18 | 49.13397 | -1.49343 | 34014 ft | 445 kts | 283° |
| 2026-05-08 14:18 | 49.14868 | -1.58555 | 34016 ft | 447 kts | 283° |
| 2026-05-08 14:19 | 49.16088 | -1.66233 | 34014 ft | 448 kts | 283° |
| 2026-05-08 14:19 | 49.17551 | -1.75492 | 34014 ft | 448 kts | 283° |
| 2026-05-08 14:20 | 49.19246 | -1.86273 | 34015 ft | 449 kts | 282° |
| 2026-05-08 14:20 | 49.20462 | -1.94058 | 34018 ft | 449 kts | 282° |
| 2026-05-08 14:21 | 49.21908 | -2.03349 | 34016 ft | 449 kts | 282° |
| 2026-05-08 14:21 | 49.23431 | -2.12622 | 34019 ft | 450 kts | 283° |
| 2026-05-08 14:22 | 49.25041 | -2.21875 | 34020 ft | 450 kts | 283° |
| 2026-05-08 14:22 | 49.26630 | -2.31066 | 34019 ft | 450 kts | 283° |
| 2026-05-08 14:23 | 49.28210 | -2.40342 | 34025 ft | 450 kts | 283° |
| 2026-05-08 14:23 | 49.29775 | -2.49617 | 34024 ft | 450 kts | 282° |
| 2026-05-08 14:24 | 49.31333 | -2.58904 | 34019 ft | 450 kts | 282° |
| 2026-05-08 14:24 | 49.32889 | -2.68231 | 34281 ft | 453 kts | 282° |
| 2026-05-08 14:24 | 49.33668 | -2.72916 | 34593 ft | 452 kts | 282° |
| 2026-05-08 14:25 | 49.34441 | -2.77581 | 34949 ft | 451 kts | 282° |
| 2026-05-08 14:25 | 49.35211 | -2.82232 | 35285 ft | 449 kts | 282° |
| 2026-05-08 14:25 | 49.35975 | -2.86867 | 35600 ft | 448 kts | 282° |
| 2026-05-08 14:25 | 49.36738 | -2.91507 | 35879 ft | 448 kts | 282° |
| 2026-05-08 14:26 | 49.37499 | -2.96154 | 35948 ft | 451 kts | 282° |
| 2026-05-08 14:26 | 49.39023 | -3.05487 | 36005 ft | 450 kts | 281° |
| 2026-05-08 14:27 | 49.40529 | -3.14760 | 36013 ft | 447 kts | 281° |
| 2026-05-08 14:27 | 49.42015 | -3.23962 | 36015 ft | 445 kts | 281° |
| 2026-05-08 14:28 | 49.43501 | -3.33218 | 36019 ft | 446 kts | 281° |
| 2026-05-08 14:28 | 49.44981 | -3.42490 | 36018 ft | 447 kts | 281° |
| 2026-05-08 14:29 | 49.46456 | -3.51780 | 36014 ft | 448 kts | 281° |
| 2026-05-08 14:29 | 49.47929 | -3.61107 | 36029 ft | 450 kts | 281° |
| 2026-05-08 14:30 | 49.49401 | -3.70487 | 36026 ft | 451 kts | 281° |
| 2026-05-08 14:30 | 49.50869 | -3.79886 | 36020 ft | 452 kts | 280° |
| 2026-05-08 14:31 | 49.52320 | -3.89236 | 36016 ft | 452 kts | 280° |
| 2026-05-08 14:31 | 49.53774 | -3.98663 | 36016 ft | 452 kts | 280° |
| 2026-05-08 14:32 | 49.55942 | -4.12814 | 36011 ft | 452 kts | 280° |
| 2026-05-08 14:32 | 49.57379 | -4.22266 | 36012 ft | 452 kts | 280° |
| 2026-05-08 14:33 | 49.58812 | -4.31707 | 36016 ft | 453 kts | 281° |
| 2026-05-08 14:33 | 49.60753 | -4.40914 | 36032 ft | 455 kts | 286° |
| 2026-05-08 14:34 | 49.62905 | -4.50109 | 36026 ft | 455 kts | 287° |
| 2026-05-08 14:34 | 49.65040 | -4.59319 | 36017 ft | 456 kts | 286° |
| 2026-05-08 14:35 | 49.67151 | -4.68554 | 36027 ft | 456 kts | 285° |
| 2026-05-08 14:35 | 49.69253 | -4.77821 | 36019 ft | 457 kts | 285° |
| 2026-05-08 14:36 | 49.71343 | -4.87084 | 36021 ft | 456 kts | 285° |
| 2026-05-08 14:36 | 49.73427 | -4.96357 | 36021 ft | 456 kts | 285° |
| 2026-05-08 14:37 | 49.75502 | -5.05627 | 36023 ft | 456 kts | 285° |
| 2026-05-08 14:37 | 49.77553 | -5.14831 | 36021 ft | 456 kts | 285° |
| 2026-05-08 14:38 | 49.79611 | -5.24105 | 36021 ft | 455 kts | 285° |
| 2026-05-08 14:38 | 49.81662 | -5.33393 | 36021 ft | 455 kts | 285° |
| 2026-05-08 14:39 | 49.83702 | -5.42672 | 36022 ft | 455 kts | 285° |
| 2026-05-08 14:39 | 49.85737 | -5.51969 | 36036 ft | 455 kts | 285° |
| 2026-05-08 14:40 | 49.87764 | -5.61270 | 36023 ft | 455 kts | 285° |
| 2026-05-08 14:40 | 49.89784 | -5.70581 | 36022 ft | 455 kts | 284° |
| 2026-05-08 14:41 | 49.91797 | -5.79903 | 36024 ft | 455 kts | 284° |
| 2026-05-08 14:41 | 49.93800 | -5.89222 | 36024 ft | 455 kts | 284° |
| 2026-05-08 14:42 | 49.95782 | -5.98484 | 36022 ft | 455 kts | 284° |
| 2026-05-08 14:42 | 49.97774 | -6.07835 | 36023 ft | 456 kts | 284° |
| 2026-05-08 14:43 | 49.99758 | -6.17193 | 36033 ft | 456 kts | 284° |
| 2026-05-08 14:43 | 50.01736 | -6.26567 | 36033 ft | 456 kts | 284° |
| 2026-05-08 14:44 | 50.03709 | -6.35956 | 36039 ft | 456 kts | 284° |
| 2026-05-08 14:44 | 50.05671 | -6.45340 | 36041 ft | 456 kts | 284° |
| 2026-05-08 14:45 | 50.07626 | -6.54730 | 36034 ft | 456 kts | 283° |
| 2026-05-08 14:45 | 50.09570 | -6.64114 | 36033 ft | 455 kts | 283° |
| 2026-05-08 14:46 | 50.11504 | -6.73497 | 36028 ft | 455 kts | 283° |
| 2026-05-08 14:46 | 50.13430 | -6.82885 | 36037 ft | 454 kts | 283° |
| 2026-05-08 14:47 | 50.15351 | -6.92293 | 36025 ft | 455 kts | 283° |
| 2026-05-08 14:47 | 50.17251 | -7.01638 | 36039 ft | 456 kts | 283° |
| 2026-05-08 14:48 | 50.19161 | -7.11081 | 36043 ft | 456 kts | 283° |
| 2026-05-08 14:48 | 50.21066 | -7.20543 | 36034 ft | 457 kts | 283° |
| 2026-05-08 14:49 | 50.22963 | -7.30013 | 36032 ft | 457 kts | 283° |
| 2026-05-08 14:49 | 50.24852 | -7.39484 | 36034 ft | 456 kts | 282° |
| 2026-05-08 14:50 | 50.26732 | -7.48959 | 36030 ft | 456 kts | 282° |
| 2026-05-08 14:50 | 50.28602 | -7.58436 | 36035 ft | 456 kts | 282° |
| 2026-05-08 14:51 | 50.30466 | -7.67920 | 36035 ft | 456 kts | 282° |
| 2026-05-08 14:51 | 50.32324 | -7.77425 | 36033 ft | 456 kts | 282° |
| 2026-05-08 14:52 | 50.35082 | -7.91620 | 36044 ft | 457 kts | 282° |
| 2026-05-08 14:53 | 50.36922 | -8.01155 | 36036 ft | 457 kts | 281° |
| 2026-05-08 14:53 | 50.38648 | -8.10739 | 36040 ft | 457 kts | 280° |
| 2026-05-08 14:54 | 50.40315 | -8.20341 | 36032 ft | 456 kts | 280° |
| 2026-05-08 14:54 | 50.41980 | -8.29942 | 36034 ft | 456 kts | 280° |
| 2026-05-08 14:55 | 50.43648 | -8.39541 | 36042 ft | 456 kts | 280° |
| 2026-05-08 14:55 | 50.45303 | -8.49093 | 36037 ft | 456 kts | 280° |
| 2026-05-08 14:56 | 50.46963 | -8.58720 | 36042 ft | 457 kts | 280° |
| 2026-05-08 14:56 | 50.48615 | -8.68355 | 36042 ft | 457 kts | 280° |
| 2026-05-08 14:57 | 50.50260 | -8.78000 | 36041 ft | 457 kts | 280° |
| 2026-05-08 14:57 | 50.51898 | -8.87664 | 36047 ft | 458 kts | 280° |
| 2026-05-08 14:58 | 50.53532 | -8.97359 | 36057 ft | 459 kts | 279° |
| 2026-05-08 14:58 | 50.55162 | -9.07086 | 36045 ft | 460 kts | 279° |
| 2026-05-08 14:59 | 50.56772 | -9.16742 | 36039 ft | 460 kts | 279° |
| 2026-05-08 14:59 | 50.59189 | -9.31340 | 36040 ft | 459 kts | 279° |
| 2026-05-08 15:00 | 50.60787 | -9.41069 | 36052 ft | 459 kts | 279° |
| 2026-05-08 15:00 | 50.62381 | -9.50822 | 36043 ft | 459 kts | 279° |
| 2026-05-08 15:01 | 50.63962 | -9.60555 | 36039 ft | 459 kts | 279° |
| 2026-05-08 15:01 | 50.65525 | -9.70232 | 36047 ft | 459 kts | 279° |
| 2026-05-08 15:02 | 50.67091 | -9.79985 | 36044 ft | 459 kts | 279° |
| 2026-05-08 15:02 | 50.68649 | -9.89747 | 36043 ft | 459 kts | 279° |
| 2026-05-08 15:03 | 50.70199 | -9.99518 | 36040 ft | 459 kts | 279° |
| 2026-05-08 15:03 | 50.71743 | -10.09306 | 36051 ft | 459 kts | 279° |
| 2026-05-08 15:04 | 50.73268 | -10.19032 | 36050 ft | 459 kts | 279° |
| 2026-05-08 15:04 | 50.74794 | -10.28823 | 36046 ft | 459 kts | 279° |
| 2026-05-08 15:05 | 50.76312 | -10.38620 | 36055 ft | 460 kts | 278° |
| 2026-05-08 15:05 | 50.77824 | -10.48438 | 36047 ft | 460 kts | 278° |
| 2026-05-08 15:06 | 50.79329 | -10.58275 | 36045 ft | 460 kts | 278° |
| 2026-05-08 15:06 | 50.80573 | -10.66451 | 36049 ft | 460 kts | 278° |
| 2026-05-08 15:07 | 50.82064 | -10.76301 | 36040 ft | 460 kts | 278° |
| 2026-05-08 15:07 | 50.83547 | -10.86162 | 36075 ft | 461 kts | 278° |
| 2026-05-08 15:08 | 50.85023 | -10.96038 | 36052 ft | 461 kts | 278° |
| 2026-05-08 15:08 | 50.86491 | -11.05921 | 36045 ft | 461 kts | 278° |
| 2026-05-08 15:09 | 50.87949 | -11.15797 | 36047 ft | 460 kts | 278° |
| 2026-05-08 15:09 | 50.89396 | -11.25670 | 36049 ft | 460 kts | 278° |
| 2026-05-08 15:10 | 50.90828 | -11.35500 | 36050 ft | 460 kts | 278° |
| 2026-05-08 15:10 | 50.92260 | -11.45390 | 36048 ft | 460 kts | 278° |
| 2026-05-08 15:11 | 50.93682 | -11.55275 | 36051 ft | 460 kts | 278° |
| 2026-05-08 15:11 | 50.95098 | -11.65183 | 36051 ft | 460 kts | 277° |
| 2026-05-08 15:12 | 50.96505 | -11.75096 | 36051 ft | 460 kts | 277° |
| 2026-05-08 15:12 | 50.97904 | -11.85006 | 36064 ft | 460 kts | 277° |
| 2026-05-08 15:13 | 50.99317 | -11.94913 | 36056 ft | 461 kts | 279° |
| 2026-05-08 15:13 | 51.01558 | -12.04529 | 36054 ft | 469 kts | 290° |
| 2026-05-08 15:14 | 51.04711 | -12.13653 | 36065 ft | 471 kts | 294° |
| 2026-05-08 15:14 | 51.07929 | -12.22644 | 36063 ft | 470 kts | 294° |
| 2026-05-08 15:15 | 51.11138 | -12.31713 | 36059 ft | 470 kts | 294° |
| 2026-05-08 15:15 | 51.14316 | -12.40806 | 36057 ft | 469 kts | 293° |
| 2026-05-08 15:16 | 51.17486 | -12.49937 | 36071 ft | 472 kts | 293° |
| 2026-05-08 15:16 | 51.20665 | -12.59131 | 36066 ft | 474 kts | 293° |
| 2026-05-08 15:17 | 51.23852 | -12.68372 | 36068 ft | 475 kts | 293° |
| 2026-05-08 15:17 | 51.27034 | -12.77628 | 36070 ft | 475 kts | 293° |
| 2026-05-08 15:18 | 51.30184 | -12.86824 | 36076 ft | 475 kts | 293° |
| 2026-05-08 15:18 | 51.33343 | -12.96086 | 36090 ft | 474 kts | 293° |
| 2026-05-08 15:19 | 51.36497 | -13.05365 | 36071 ft | 474 kts | 293° |
| 2026-05-08 15:19 | 51.39635 | -13.14631 | 36069 ft | 473 kts | 292° |
| 2026-05-08 15:20 | 51.42763 | -13.23902 | 36069 ft | 472 kts | 292° |
| 2026-05-08 15:20 | 51.45872 | -13.33154 | 36078 ft | 472 kts | 292° |
| 2026-05-08 15:21 | 51.48979 | -13.42432 | 36097 ft | 471 kts | 292° |
| 2026-05-08 15:21 | 51.52055 | -13.51651 | 36112 ft | 471 kts | 292° |
| 2026-05-08 15:22 | 51.55141 | -13.60937 | 36104 ft | 471 kts | 292° |
| 2026-05-08 15:22 | 51.58220 | -13.70237 | 36100 ft | 471 kts | 292° |
| 2026-05-08 15:23 | 51.61296 | -13.79559 | 36096 ft | 472 kts | 292° |
| 2026-05-08 15:23 | 51.64368 | -13.88905 | 36105 ft | 473 kts | 292° |
| 2026-05-08 15:24 | 51.67437 | -13.98280 | 36097 ft | 472 kts | 292° |
| 2026-05-08 15:24 | 51.70492 | -14.07644 | 36103 ft | 472 kts | 292° |
| 2026-05-08 15:25 | 51.73535 | -14.17007 | 36110 ft | 471 kts | 292° |
| 2026-05-08 15:25 | 51.76550 | -14.26321 | 36111 ft | 470 kts | 292° |
| 2026-05-08 15:26 | 51.79573 | -14.35695 | 36115 ft | 470 kts | 292° |
| 2026-05-08 15:26 | 51.82591 | -14.45089 | 36114 ft | 470 kts | 292° |
| 2026-05-08 15:27 | 51.85603 | -14.54500 | 36118 ft | 470 kts | 291° |
| 2026-05-08 15:27 | 51.88584 | -14.63853 | 36131 ft | 471 kts | 292° |
| 2026-05-08 15:28 | 51.91581 | -14.73288 | 36122 ft | 471 kts | 291° |
| 2026-05-08 15:28 | 51.94566 | -14.82726 | 36139 ft | 470 kts | 292° |
| 2026-05-08 15:29 | 51.97547 | -14.92181 | 36130 ft | 471 kts | 291° |
| 2026-05-08 15:29 | 51.99694 | -15.02067 | 36136 ft | 460 kts | 277° |
| 2026-05-08 15:30 | 52.00349 | -15.12298 | 36145 ft | 453 kts | 267° |
| 2026-05-08 15:30 | 52.00501 | -15.22476 | 36143 ft | 454 kts | 267° |
| 2026-05-08 15:31 | 52.00650 | -15.32737 | 36153 ft | 455 kts | 267° |
| 2026-05-08 15:31 | 52.00819 | -15.43008 | 36141 ft | 456 kts | 268° |
| 2026-05-08 15:32 | 52.00994 | -15.53293 | 36141 ft | 455 kts | 268° |
| 2026-05-08 15:32 | 52.01163 | -15.63571 | 36140 ft | 455 kts | 267° |
| 2026-05-08 15:33 | 52.01322 | -15.73831 | 36146 ft | 454 kts | 267° |
| 2026-05-08 15:33 | 52.01471 | -15.84080 | 36147 ft | 454 kts | 267° |
| 2026-05-08 15:34 | 52.01609 | -15.94319 | 36144 ft | 454 kts | 267° |
| 2026-05-08 15:34 | 52.01740 | -16.04569 | 36145 ft | 455 kts | 267° |
| 2026-05-08 15:35 | 52.01861 | -16.14785 | 36155 ft | 455 kts | 267° |
| 2026-05-08 15:35 | 52.01975 | -16.25088 | 36154 ft | 456 kts | 267° |
| 2026-05-08 15:36 | 52.02063 | -16.33641 | 36153 ft | 456 kts | 267° |
| 2026-05-08 15:36 | 52.02176 | -16.45706 | 36158 ft | 458 kts | 268° |
| 2026-05-08 15:37 | 52.02262 | -16.56048 | 36156 ft | 458 kts | 267° |
| 2026-05-08 15:37 | 52.02340 | -16.66418 | 36156 ft | 459 kts | 267° |
| 2026-05-08 15:38 | 52.02409 | -16.76715 | 36156 ft | 459 kts | 267° |
| 2026-05-08 15:38 | 52.02469 | -16.87089 | 36155 ft | 459 kts | 267° |
| 2026-05-08 15:39 | 52.02520 | -16.97468 | 36180 ft | 460 kts | 268° |
| 2026-05-08 15:39 | 52.02562 | -17.07843 | 36166 ft | 460 kts | 267° |
| 2026-05-08 15:40 | 52.02595 | -17.18226 | 36165 ft | 459 kts | 268° |
| 2026-05-08 15:40 | 52.02619 | -17.28585 | 36166 ft | 458 kts | 267° |
| 2026-05-08 15:41 | 52.02633 | -17.38937 | 36166 ft | 458 kts | 267° |
| 2026-05-08 15:41 | 52.02638 | -17.49280 | 36157 ft | 458 kts | 267° |
| 2026-05-08 15:42 | 52.02635 | -17.59636 | 36173 ft | 458 kts | 267° |
| 2026-05-08 15:42 | 52.02622 | -17.69920 | 36168 ft | 459 kts | 268° |
| 2026-05-08 15:43 | 52.02601 | -17.80271 | 36179 ft | 458 kts | 267° |
| 2026-05-08 15:43 | 52.02569 | -17.90636 | 36172 ft | 459 kts | 267° |
| 2026-05-08 15:44 | 52.02530 | -18.01009 | 36187 ft | 458 kts | 267° |
| 2026-05-08 15:44 | 52.02481 | -18.11352 | 36167 ft | 459 kts | 268° |
| 2026-05-08 15:45 | 52.02423 | -18.21716 | 36184 ft | 459 kts | 267° |
| 2026-05-08 15:45 | 52.02355 | -18.32065 | 36186 ft | 459 kts | 268° |
| 2026-05-08 15:46 | 52.02280 | -18.42374 | 36191 ft | 459 kts | 267° |
| 2026-05-08 15:46 | 52.02195 | -18.52743 | 36181 ft | 459 kts | 268° |
| 2026-05-08 15:47 | 52.02100 | -18.63136 | 36189 ft | 461 kts | 267° |
| 2026-05-08 15:47 | 52.01996 | -18.73523 | 36189 ft | 460 kts | 268° |
| 2026-05-08 15:48 | 52.01824 | -18.89125 | 36197 ft | 460 kts | 267° |
| 2026-05-08 15:49 | 52.01696 | -18.99525 | 36196 ft | 463 kts | 268° |
| 2026-05-08 15:49 | 52.01559 | -19.09948 | 36201 ft | 466 kts | 268° |
| 2026-05-08 15:50 | 52.01412 | -19.20490 | 36199 ft | 467 kts | 268° |
| 2026-05-08 15:50 | 52.01257 | -19.31030 | 36191 ft | 467 kts | 268° |
| 2026-05-08 15:51 | 52.01090 | -19.41566 | 36204 ft | 466 kts | 268° |
| 2026-05-08 15:51 | 52.00915 | -19.52074 | 36190 ft | 466 kts | 268° |
| 2026-05-08 15:52 | 52.00730 | -19.62641 | 36216 ft | 470 kts | 268° |
| 2026-05-08 15:52 | 52.00568 | -19.71485 | 36211 ft | 472 kts | 268° |
| 2026-05-08 15:53 | 52.00329 | -19.83871 | 36206 ft | 470 kts | 268° |
| 2026-05-08 15:53 | 52.00117 | -19.94434 | 36189 ft | 467 kts | 268° |
| 2026-05-08 15:54 | 52.00135 | -20.04959 | 36216 ft | 467 kts | 274° |
| 2026-05-08 15:54 | 52.00513 | -20.13750 | 36221 ft | 473 kts | 275° |
| 2026-05-08 15:55 | 52.00991 | -20.24475 | 36222 ft | 478 kts | 276° |
| 2026-05-08 15:55 | 52.01654 | -20.40630 | 36199 ft | 475 kts | 275° |
| 2026-05-08 15:56 | 52.02064 | -20.51294 | 36222 ft | 473 kts | 275° |
| 2026-05-08 15:56 | 52.02465 | -20.61972 | 36230 ft | 473 kts | 275° |
| 2026-05-08 15:57 | 52.02854 | -20.72583 | 36230 ft | 474 kts | 274° |
| 2026-05-08 15:57 | 52.03235 | -20.83276 | 36232 ft | 474 kts | 275° |
| 2026-05-08 15:58 | 52.03610 | -20.93985 | 36227 ft | 475 kts | 274° |
| 2026-05-08 15:58 | 52.03973 | -21.04706 | 36234 ft | 475 kts | 275° |
| 2026-05-08 15:59 | 52.04327 | -21.15433 | 36241 ft | 475 kts | 276° |
| 2026-05-08 15:59 | 52.04673 | -21.26168 | 36243 ft | 476 kts | 275° |
| 2026-05-08 16:00 | 52.05005 | -21.36846 | 36240 ft | 476 kts | 277° |
| 2026-05-08 16:00 | 52.05334 | -21.47624 | 36250 ft | 477 kts | 275° |
| 2026-05-08 16:01 | 52.05650 | -21.58408 | 36242 ft | 478 kts | 275° |
| 2026-05-08 16:01 | 52.05957 | -21.69226 | 36255 ft | 480 kts | 276° |
| 2026-05-08 16:02 | 52.06259 | -21.80076 | 36257 ft | 481 kts | 276° |
| 2026-05-08 16:02 | 52.06549 | -21.90946 | 36257 ft | 482 kts | 275° |
| 2026-05-08 16:03 | 52.06829 | -22.01861 | 36262 ft | 483 kts | 276° |
| 2026-05-08 16:03 | 52.07097 | -22.12697 | 36251 ft | 483 kts | 275° |
| 2026-05-08 16:04 | 52.07357 | -22.23619 | 36264 ft | 483 kts | 276° |
| 2026-05-08 16:04 | 52.07608 | -22.34531 | 36268 ft | 483 kts | 276° |
| 2026-05-08 16:05 | 52.07848 | -22.45445 | 36266 ft | 483 kts | 276° |
| 2026-05-08 16:05 | 52.08079 | -22.56391 | 36276 ft | 483 kts | 275° |
| 2026-05-08 16:06 | 52.08298 | -22.67302 | 36254 ft | 483 kts | 276° |
| 2026-05-08 16:06 | 52.08507 | -22.78161 | 36276 ft | 483 kts | 276° |
| 2026-05-08 16:07 | 52.08707 | -22.89073 | 36282 ft | 483 kts | 276° |
| 2026-05-08 16:07 | 52.08897 | -22.99999 | 36288 ft | 483 kts | 276° |
| 2026-05-08 16:08 | 52.09077 | -23.10940 | 36288 ft | 484 kts | 276° |
| 2026-05-08 16:08 | 52.09247 | -23.21876 | 36272 ft | 484 kts | 276° |
| 2026-05-08 16:09 | 52.09406 | -23.32815 | 36291 ft | 484 kts | 276° |
| 2026-05-08 16:09 | 52.09557 | -23.43751 | 36306 ft | 484 kts | 276° |
| 2026-05-08 16:10 | 52.09696 | -23.54694 | 36301 ft | 484 kts | 276° |
| 2026-05-08 16:10 | 52.09825 | -23.65651 | 36295 ft | 484 kts | 276° |
| 2026-05-08 16:11 | 52.09943 | -23.76517 | 36282 ft | 483 kts | 277° |
| 2026-05-08 16:11 | 52.10052 | -23.87459 | 36318 ft | 483 kts | 277° |
| 2026-05-08 16:12 | 52.10152 | -23.98390 | 36321 ft | 483 kts | 277° |
| 2026-05-08 16:12 | 52.10242 | -24.09328 | 36320 ft | 483 kts | 277° |
| 2026-05-08 16:13 | 52.10320 | -24.20262 | 36317 ft | 483 kts | 277° |
| 2026-05-08 16:13 | 52.10389 | -24.31192 | 36305 ft | 483 kts | 277° |
| 2026-05-08 16:14 | 52.10447 | -24.42115 | 36327 ft | 483 kts | 277° |
| 2026-05-08 16:14 | 52.10495 | -24.53035 | 36335 ft | 483 kts | 277° |
| 2026-05-08 16:15 | 52.10534 | -24.63896 | 36334 ft | 483 kts | 277° |
| 2026-05-08 16:15 | 52.10562 | -24.74831 | 36340 ft | 483 kts | 277° |
| 2026-05-08 16:16 | 52.10579 | -24.85776 | 36329 ft | 482 kts | 278° |
| 2026-05-08 16:16 | 52.10587 | -24.96669 | 36342 ft | 481 kts | 278° |
| 2026-05-08 16:17 | 52.10586 | -25.05712 | 36348 ft | 480 kts | 278° |
| 2026-05-08 16:17 | 52.10574 | -25.18419 | 36347 ft | 480 kts | 278° |
| 2026-05-08 16:18 | 52.10552 | -25.29204 | 36356 ft | 480 kts | 278° |
| 2026-05-08 16:18 | 52.10520 | -25.40070 | 36340 ft | 479 kts | 278° |
| 2026-05-08 16:19 | 52.10478 | -25.50894 | 36353 ft | 478 kts | 278° |
| 2026-05-08 16:19 | 52.10427 | -25.61697 | 36353 ft | 477 kts | 278° |
| 2026-05-08 16:20 | 52.10366 | -25.72488 | 36360 ft | 477 kts | 278° |
| 2026-05-08 16:20 | 52.10295 | -25.83287 | 36370 ft | 477 kts | 277° |
| 2026-05-08 16:21 | 52.10214 | -25.94071 | 36345 ft | 477 kts | 277° |
| 2026-05-08 16:21 | 52.10124 | -26.04868 | 36364 ft | 477 kts | 277° |
| 2026-05-08 16:22 | 52.10024 | -26.15584 | 36381 ft | 477 kts | 277° |
| 2026-05-08 16:22 | 52.09914 | -26.26381 | 36378 ft | 478 kts | 277° |
| 2026-05-08 16:23 | 52.09793 | -26.37182 | 36383 ft | 478 kts | 277° |
| 2026-05-08 16:23 | 52.09663 | -26.47997 | 36367 ft | 478 kts | 277° |
| 2026-05-08 16:24 | 52.09522 | -26.58796 | 36384 ft | 478 kts | 276° |
| 2026-05-08 16:24 | 52.09372 | -26.69603 | 36400 ft | 478 kts | 276° |
| 2026-05-08 16:25 | 52.09212 | -26.80408 | 36392 ft | 478 kts | 276° |
| 2026-05-08 16:25 | 52.09042 | -26.91212 | 36400 ft | 478 kts | 276° |
| 2026-05-08 16:26 | 52.08862 | -27.02025 | 36385 ft | 477 kts | 276° |
| 2026-05-08 16:26 | 52.08672 | -27.12802 | 36390 ft | 476 kts | 276° |
| 2026-05-08 16:27 | 52.08473 | -27.23558 | 36402 ft | 475 kts | 276° |
| 2026-05-08 16:27 | 52.08267 | -27.34208 | 36407 ft | 474 kts | 276° |
| 2026-05-08 16:28 | 52.08050 | -27.44893 | 36411 ft | 473 kts | 276° |
| 2026-05-08 16:28 | 52.07824 | -27.55572 | 36395 ft | 472 kts | 276° |
| 2026-05-08 16:29 | 52.07589 | -27.66222 | 36415 ft | 470 kts | 276° |
| 2026-05-08 16:29 | 52.07345 | -27.76842 | 36423 ft | 470 kts | 276° |
| 2026-05-08 16:30 | 52.07092 | -27.87453 | 36426 ft | 470 kts | 275° |
| 2026-05-08 16:30 | 52.06830 | -27.98062 | 36429 ft | 470 kts | 275° |
| 2026-05-08 16:31 | 52.06557 | -28.08683 | 36404 ft | 470 kts | 275° |
| 2026-05-08 16:31 | 52.06274 | -28.19291 | 36426 ft | 470 kts | 275° |
| 2026-05-08 16:32 | 52.05983 | -28.29899 | 36414 ft | 470 kts | 275° |
| 2026-05-08 16:32 | 52.05681 | -28.40502 | 36438 ft | 469 kts | 275° |
| 2026-05-08 16:33 | 52.05373 | -28.51031 | 36450 ft | 469 kts | 275° |
| 2026-05-08 16:33 | 52.05053 | -28.61628 | 36405 ft | 469 kts | 275° |
| 2026-05-08 16:34 | 52.04722 | -28.72275 | 36439 ft | 469 kts | 274° |
| 2026-05-08 16:34 | 52.04386 | -28.82779 | 36450 ft | 469 kts | 274° |
| 2026-05-08 16:35 | 52.04038 | -28.93353 | 36447 ft | 469 kts | 274° |
| 2026-05-08 16:35 | 52.03681 | -29.03922 | 36452 ft | 469 kts | 274° |
| 2026-05-08 16:36 | 52.03314 | -29.14500 | 36421 ft | 469 kts | 274° |
| 2026-05-08 16:36 | 52.02938 | -29.25065 | 36447 ft | 468 kts | 274° |
| 2026-05-08 16:37 | 52.02552 | -29.35641 | 36451 ft | 468 kts | 274° |
| 2026-05-08 16:37 | 52.02159 | -29.46142 | 36456 ft | 468 kts | 274° |
| 2026-05-08 16:38 | 52.01756 | -29.56685 | 36466 ft | 468 kts | 274° |
| 2026-05-08 16:38 | 52.01342 | -29.67237 | 36460 ft | 468 kts | 274° |
| 2026-05-08 16:39 | 52.00920 | -29.77778 | 36457 ft | 467 kts | 274° |
| 2026-05-08 16:39 | 52.00490 | -29.88313 | 36464 ft | 467 kts | 274° |
| 2026-05-08 16:40 | 52.00126 | -29.97056 | 36470 ft | 467 kts | 274° |
| 2026-05-08 16:40 | 52.00300 | -30.09143 | 36479 ft | 458 kts | 281° |
| 2026-05-08 16:41 | 52.00767 | -30.19453 | 36465 ft | 458 kts | 281° |
| 2026-05-08 16:42 | 52.01355 | -30.33198 | 36467 ft | 458 kts | 281° |
| 2026-05-08 16:42 | 52.01765 | -30.43529 | 36477 ft | 458 kts | 281° |
| 2026-05-08 16:43 | 52.02160 | -30.53860 | 36478 ft | 458 kts | 281° |
| 2026-05-08 16:43 | 52.02545 | -30.64199 | 36479 ft | 459 kts | 281° |
| 2026-05-08 16:44 | 52.02923 | -30.74557 | 36482 ft | 459 kts | 281° |
| 2026-05-08 16:44 | 52.03292 | -30.84908 | 36448 ft | 459 kts | 281° |
| 2026-05-08 16:45 | 52.03648 | -30.95177 | 36476 ft | 458 kts | 281° |
| 2026-05-08 16:45 | 52.03999 | -31.05517 | 36484 ft | 458 kts | 281° |
| 2026-05-08 16:46 | 52.04341 | -31.15871 | 36484 ft | 459 kts | 281° |
| 2026-05-08 16:46 | 52.04674 | -31.26223 | 36470 ft | 459 kts | 281° |
| 2026-05-08 16:47 | 52.04997 | -31.36572 | 36486 ft | 459 kts | 281° |
| 2026-05-08 16:47 | 52.05311 | -31.46925 | 36485 ft | 459 kts | 281° |
| 2026-05-08 16:48 | 52.05616 | -31.57284 | 36472 ft | 459 kts | 281° |
| 2026-05-08 16:48 | 52.05913 | -31.67641 | 36482 ft | 459 kts | 281° |
| 2026-05-08 16:49 | 52.06198 | -31.77920 | 36484 ft | 458 kts | 281° |
| 2026-05-08 16:49 | 52.06475 | -31.88271 | 36484 ft | 458 kts | 281° |
| 2026-05-08 16:50 | 52.06744 | -31.98626 | 36473 ft | 458 kts | 281° |
| 2026-05-08 16:50 | 52.07004 | -32.08982 | 36479 ft | 458 kts | 281° |
| 2026-05-08 16:51 | 52.07254 | -32.19321 | 36483 ft | 457 kts | 281° |
| 2026-05-08 16:51 | 52.07495 | -32.29652 | 36484 ft | 457 kts | 281° |
| 2026-05-08 16:52 | 52.07727 | -32.39967 | 36486 ft | 457 kts | 281° |
| 2026-05-08 16:52 | 52.07949 | -32.50220 | 36486 ft | 457 kts | 281° |
| 2026-05-08 16:53 | 52.08266 | -32.65704 | 36462 ft | 457 kts | 281° |
| 2026-05-08 16:53 | 52.08466 | -32.76020 | 36480 ft | 456 kts | 281° |
| 2026-05-08 16:54 | 52.08657 | -32.86336 | 36484 ft | 456 kts | 281° |
| 2026-05-08 16:54 | 52.08840 | -32.96663 | 36482 ft | 457 kts | 280° |
| 2026-05-08 16:55 | 52.09013 | -33.06985 | 36486 ft | 456 kts | 281° |
| 2026-05-08 16:55 | 52.09177 | -33.17295 | 36485 ft | 456 kts | 280° |
| 2026-05-08 16:56 | 52.09331 | -33.27534 | 36472 ft | 455 kts | 281° |
| 2026-05-08 16:56 | 52.09477 | -33.37840 | 36480 ft | 455 kts | 281° |
| 2026-05-08 16:57 | 52.09614 | -33.48151 | 36484 ft | 456 kts | 281° |
| 2026-05-08 16:57 | 52.09742 | -33.58471 | 36482 ft | 456 kts | 281° |
| 2026-05-08 16:58 | 52.09862 | -33.68808 | 36484 ft | 457 kts | 281° |
| 2026-05-08 16:58 | 52.09972 | -33.79087 | 36483 ft | 457 kts | 281° |
| 2026-05-08 16:59 | 52.10072 | -33.89439 | 36475 ft | 456 kts | 281° |
| 2026-05-08 16:59 | 52.10163 | -33.99752 | 36478 ft | 456 kts | 281° |
| 2026-05-08 17:00 | 52.10247 | -34.10078 | 36489 ft | 456 kts | 281° |
| 2026-05-08 17:00 | 52.10321 | -34.20397 | 36484 ft | 456 kts | 281° |
| 2026-05-08 17:01 | 52.10387 | -34.30723 | 36483 ft | 456 kts | 281° |
| 2026-05-08 17:01 | 52.10443 | -34.41056 | 36490 ft | 457 kts | 281° |
| 2026-05-08 17:02 | 52.10489 | -34.51312 | 36480 ft | 456 kts | 281° |
| 2026-05-08 17:02 | 52.10527 | -34.61625 | 36485 ft | 456 kts | 281° |
| 2026-05-08 17:03 | 52.10556 | -34.71940 | 36476 ft | 456 kts | 281° |
| 2026-05-08 17:03 | 52.10576 | -34.82244 | 36478 ft | 455 kts | 281° |
| 2026-05-08 17:04 | 52.10587 | -34.92542 | 36481 ft | 455 kts | 281° |
| 2026-05-08 17:04 | 52.10589 | -35.02830 | 36447 ft | 454 kts | 280° |
| 2026-05-08 17:05 | 52.10582 | -35.13074 | 36477 ft | 453 kts | 280° |
| 2026-05-08 17:05 | 52.10566 | -35.23317 | 36481 ft | 452 kts | 280° |
| 2026-05-08 17:06 | 52.10542 | -35.33476 | 36479 ft | 452 kts | 280° |
| 2026-05-08 17:06 | 52.10509 | -35.43698 | 36479 ft | 452 kts | 280° |
| 2026-05-08 17:07 | 52.10467 | -35.53929 | 36480 ft | 452 kts | 280° |
| 2026-05-08 17:07 | 52.10416 | -35.64163 | 36444 ft | 452 kts | 279° |
| 2026-05-08 17:08 | 52.10355 | -35.74368 | 36471 ft | 451 kts | 279° |
| 2026-05-08 17:08 | 52.10287 | -35.84601 | 36473 ft | 452 kts | 279° |
| 2026-05-08 17:09 | 52.10210 | -35.94822 | 36469 ft | 452 kts | 279° |
| 2026-05-08 17:09 | 52.10124 | -36.05048 | 36469 ft | 453 kts | 279° |
| 2026-05-08 17:10 | 52.10028 | -36.15286 | 36465 ft | 453 kts | 279° |
| 2026-05-08 17:10 | 52.09925 | -36.25465 | 36446 ft | 453 kts | 278° |
| 2026-05-08 17:11 | 52.09811 | -36.35711 | 36455 ft | 453 kts | 278° |
| 2026-05-08 17:11 | 52.09688 | -36.45946 | 36451 ft | 452 kts | 277° |
| 2026-05-08 17:12 | 52.09557 | -36.56185 | 36460 ft | 452 kts | 277° |
| 2026-05-08 17:12 | 52.09418 | -36.66416 | 36459 ft | 452 kts | 277° |
| 2026-05-08 17:13 | 52.09271 | -36.76584 | 36455 ft | 452 kts | 277° |
| 2026-05-08 17:13 | 52.09114 | -36.86811 | 36425 ft | 452 kts | 277° |
| 2026-05-08 17:14 | 52.08947 | -36.97045 | 36445 ft | 452 kts | 277° |
| 2026-05-08 17:14 | 52.08773 | -37.07279 | 36449 ft | 453 kts | 277° |
| 2026-05-08 17:15 | 52.08589 | -37.17525 | 36445 ft | 454 kts | 277° |
| 2026-05-08 17:15 | 52.08395 | -37.27798 | 36433 ft | 454 kts | 276° |
| 2026-05-08 17:16 | 52.08192 | -37.38067 | 36440 ft | 454 kts | 276° |
| 2026-05-08 17:16 | 52.07980 | -37.48334 | 36436 ft | 454 kts | 276° |
| 2026-05-08 17:17 | 52.07761 | -37.58540 | 36431 ft | 454 kts | 276° |
| 2026-05-08 17:17 | 52.07532 | -37.68800 | 36431 ft | 454 kts | 276° |
| 2026-05-08 17:18 | 52.07294 | -37.79068 | 36423 ft | 454 kts | 276° |
| 2026-05-08 17:18 | 52.07047 | -37.89323 | 36423 ft | 454 kts | 276° |
| 2026-05-08 17:19 | 52.06792 | -37.99574 | 36420 ft | 454 kts | 275° |
| 2026-05-08 17:19 | 52.06528 | -38.09817 | 36411 ft | 453 kts | 275° |
| 2026-05-08 17:20 | 52.06256 | -38.19981 | 36410 ft | 452 kts | 274° |
| 2026-05-08 17:20 | 52.05974 | -38.30195 | 36406 ft | 452 kts | 274° |
| 2026-05-08 17:21 | 52.05685 | -38.40403 | 36406 ft | 451 kts | 274° |
| 2026-05-08 17:21 | 52.05387 | -38.50596 | 36396 ft | 451 kts | 274° |
| 2026-05-08 17:22 | 52.05082 | -38.60720 | 36393 ft | 451 kts | 274° |
| 2026-05-08 17:22 | 52.04766 | -38.70902 | 36390 ft | 452 kts | 274° |
| 2026-05-08 17:23 | 52.04441 | -38.81115 | 36386 ft | 453 kts | 274° |
| 2026-05-08 17:23 | 52.04107 | -38.91340 | 36379 ft | 454 kts | 274° |
| 2026-05-08 17:24 | 52.03762 | -39.01596 | 36376 ft | 455 kts | 274° |
| 2026-05-08 17:24 | 52.03408 | -39.11867 | 36375 ft | 455 kts | 273° |
| 2026-05-08 17:25 | 52.03044 | -39.22147 | 36337 ft | 456 kts | 273° |
| 2026-05-08 17:25 | 52.02671 | -39.32417 | 36360 ft | 455 kts | 273° |
| 2026-05-08 17:26 | 52.02292 | -39.42622 | 36371 ft | 456 kts | 273° |
| 2026-05-08 17:26 | 52.01902 | -39.52898 | 36371 ft | 456 kts | 273° |
| 2026-05-08 17:27 | 52.01504 | -39.63165 | 36370 ft | 456 kts | 273° |
| 2026-05-08 17:27 | 52.01096 | -39.73439 | 36361 ft | 456 kts | 273° |
| 2026-05-08 17:28 | 52.00680 | -39.83697 | 36340 ft | 455 kts | 272° |
| 2026-05-08 17:28 | 52.00257 | -39.93916 | 36343 ft | 453 kts | 272° |
| 2026-05-08 17:29 | 51.99467 | -40.04080 | 36343 ft | 459 kts | 263° |
| 2026-05-08 17:29 | 51.97925 | -40.14119 | 36348 ft | 458 kts | 262° |
| 2026-05-08 17:30 | 51.96625 | -40.22440 | 36335 ft | 458 kts | 262° |
| 2026-05-08 17:30 | 51.95073 | -40.32459 | 36339 ft | 458 kts | 262° |
| 2026-05-08 17:31 | 51.93531 | -40.42465 | 36334 ft | 457 kts | 262° |
| 2026-05-08 17:31 | 51.92001 | -40.52370 | 36336 ft | 456 kts | 262° |
| 2026-05-08 17:32 | 51.90453 | -40.62332 | 36327 ft | 456 kts | 262° |
| 2026-05-08 17:32 | 51.88895 | -40.72294 | 36323 ft | 456 kts | 262° |
| 2026-05-08 17:33 | 51.87327 | -40.82258 | 36313 ft | 456 kts | 261° |
| 2026-05-08 17:33 | 51.85754 | -40.92190 | 36314 ft | 455 kts | 261° |
| 2026-05-08 17:34 | 51.84177 | -41.02084 | 36307 ft | 453 kts | 260° |
| 2026-05-08 17:34 | 51.82600 | -41.11917 | 36302 ft | 451 kts | 260° |
| 2026-05-08 17:35 | 51.81022 | -41.21709 | 36292 ft | 449 kts | 260° |
| 2026-05-08 17:35 | 51.79441 | -41.31460 | 36293 ft | 448 kts | 260° |
| 2026-05-08 17:36 | 51.77867 | -41.41116 | 36284 ft | 447 kts | 260° |
| 2026-05-08 17:36 | 51.76276 | -41.50814 | 36286 ft | 446 kts | 259° |
| 2026-05-08 17:37 | 51.74680 | -41.60490 | 36279 ft | 446 kts | 259° |
| 2026-05-08 17:37 | 51.73077 | -41.70157 | 36274 ft | 446 kts | 259° |
| 2026-05-08 17:38 | 51.71465 | -41.79817 | 36270 ft | 446 kts | 259° |
| 2026-05-08 17:38 | 51.69844 | -41.89477 | 36270 ft | 446 kts | 259° |
| 2026-05-08 17:39 | 51.68214 | -41.99140 | 36260 ft | 446 kts | 259° |
| 2026-05-08 17:39 | 51.66576 | -42.08794 | 36261 ft | 446 kts | 259° |
| 2026-05-08 17:40 | 51.64941 | -42.18378 | 36247 ft | 446 kts | 258° |
| 2026-05-08 17:40 | 51.63294 | -42.27976 | 36247 ft | 444 kts | 258° |
| 2026-05-08 17:41 | 51.61643 | -42.37547 | 36232 ft | 442 kts | 258° |
| 2026-05-08 17:41 | 51.59991 | -42.47071 | 36237 ft | 441 kts | 258° |
| 2026-05-08 17:42 | 51.58349 | -42.56494 | 36239 ft | 440 kts | 257° |
| 2026-05-08 17:42 | 51.56690 | -42.65959 | 36230 ft | 439 kts | 257° |
| 2026-05-08 17:43 | 51.55025 | -42.75406 | 36230 ft | 439 kts | 257° |
| 2026-05-08 17:43 | 51.53352 | -42.84853 | 36229 ft | 440 kts | 257° |
| 2026-05-08 17:44 | 51.51668 | -42.94311 | 36227 ft | 440 kts | 257° |
| 2026-05-08 17:44 | 51.49975 | -43.03770 | 36226 ft | 441 kts | 257° |
| 2026-05-08 17:45 | 51.48273 | -43.13228 | 36219 ft | 442 kts | 257° |
| 2026-05-08 17:45 | 51.46570 | -43.22644 | 36218 ft | 442 kts | 257° |
| 2026-05-08 17:46 | 51.44848 | -43.32113 | 36214 ft | 442 kts | 256° |
| 2026-05-08 17:46 | 51.43123 | -43.41551 | 36208 ft | 440 kts | 256° |
| 2026-05-08 17:47 | 51.41396 | -43.50947 | 36210 ft | 438 kts | 256° |
| 2026-05-08 17:47 | 51.39961 | -43.58723 | 36193 ft | 437 kts | 256° |
| 2026-05-08 17:48 | 51.37952 | -43.69556 | 36200 ft | 436 kts | 256° |
| 2026-05-08 17:48 | 51.36218 | -43.78854 | 36187 ft | 436 kts | 256° |
| 2026-05-08 17:49 | 51.34478 | -43.88135 | 36191 ft | 435 kts | 255° |
| 2026-05-08 17:49 | 51.32731 | -43.97413 | 36174 ft | 436 kts | 255° |
| 2026-05-08 17:50 | 51.30974 | -44.06691 | 36175 ft | 436 kts | 255° |
| 2026-05-08 17:50 | 51.29209 | -44.15970 | 36169 ft | 437 kts | 255° |
| 2026-05-08 17:51 | 51.27431 | -44.25270 | 36169 ft | 437 kts | 255° |
| 2026-05-08 17:51 | 51.25646 | -44.34558 | 36167 ft | 437 kts | 254° |
| 2026-05-08 17:52 | 51.23855 | -44.43840 | 36180 ft | 437 kts | 254° |
| 2026-05-08 17:53 | 51.21169 | -44.57667 | 36146 ft | 436 kts | 254° |
| 2026-05-08 17:53 | 51.19368 | -44.66885 | 36148 ft | 435 kts | 253° |
| 2026-05-08 17:54 | 51.17562 | -44.76084 | 36141 ft | 434 kts | 253° |
| 2026-05-08 17:54 | 51.15750 | -44.85267 | 36147 ft | 434 kts | 253° |
| 2026-05-08 17:55 | 51.13931 | -44.94445 | 36129 ft | 435 kts | 253° |
| 2026-05-08 17:55 | 51.12102 | -45.03627 | 36131 ft | 435 kts | 253° |
| 2026-05-08 17:56 | 51.10265 | -45.12808 | 36122 ft | 436 kts | 253° |
| 2026-05-08 17:56 | 51.08418 | -45.21997 | 36124 ft | 436 kts | 253° |
| 2026-05-08 17:57 | 51.06572 | -45.31134 | 36114 ft | 437 kts | 253° |
| 2026-05-08 17:57 | 51.04706 | -45.40332 | 36100 ft | 437 kts | 253° |
| 2026-05-08 17:58 | 51.02832 | -45.49523 | 36099 ft | 437 kts | 253° |
| 2026-05-08 17:58 | 51.00949 | -45.58714 | 36121 ft | 437 kts | 252° |
| 2026-05-08 17:59 | 50.99061 | -45.67886 | 36085 ft | 436 kts | 252° |
| 2026-05-08 17:59 | 50.97174 | -45.77016 | 36088 ft | 435 kts | 251° |
| 2026-05-08 18:00 | 50.95287 | -45.86104 | 36069 ft | 433 kts | 251° |
| 2026-05-08 18:00 | 50.92449 | -45.99692 | 36065 ft | 432 kts | 251° |
| 2026-05-08 18:01 | 50.90553 | -46.08719 | 36063 ft | 432 kts | 251° |
| 2026-05-08 18:01 | 50.88649 | -46.17745 | 36064 ft | 432 kts | 251° |
| 2026-05-08 18:02 | 50.87057 | -46.25259 | 36042 ft | 433 kts | 251° |
| 2026-05-08 18:02 | 50.84822 | -46.35760 | 36039 ft | 434 kts | 251° |
| 2026-05-08 18:03 | 50.82887 | -46.44812 | 36032 ft | 435 kts | 251° |
| 2026-05-08 18:03 | 50.80942 | -46.53870 | 36037 ft | 435 kts | 251° |
| 2026-05-08 18:04 | 50.78988 | -46.62926 | 36027 ft | 436 kts | 251° |
| 2026-05-08 18:04 | 50.77023 | -46.71997 | 36027 ft | 436 kts | 250° |
| 2026-05-08 18:05 | 50.75056 | -46.81036 | 36007 ft | 435 kts | 250° |
| 2026-05-08 18:05 | 50.73086 | -46.90045 | 36007 ft | 433 kts | 250° |
| 2026-05-08 18:06 | 50.71118 | -46.99011 | 35996 ft | 432 kts | 250° |
| 2026-05-08 18:06 | 50.69144 | -47.07963 | 35997 ft | 431 kts | 249° |
| 2026-05-08 18:07 | 50.67181 | -47.16828 | 35987 ft | 431 kts | 249° |
| 2026-05-08 18:07 | 50.65199 | -47.25744 | 35986 ft | 430 kts | 249° |
| 2026-05-08 18:08 | 50.63214 | -47.34631 | 35988 ft | 430 kts | 249° |
| 2026-05-08 18:08 | 50.61221 | -47.43514 | 35974 ft | 430 kts | 249° |
| 2026-05-08 18:09 | 50.59222 | -47.52390 | 35965 ft | 430 kts | 249° |
| 2026-05-08 18:09 | 50.57215 | -47.61261 | 35972 ft | 430 kts | 249° |
| 2026-05-08 18:10 | 50.55200 | -47.70136 | 35964 ft | 431 kts | 249° |
| 2026-05-08 18:10 | 50.53177 | -47.79003 | 35990 ft | 431 kts | 248° |
| 2026-05-08 18:11 | 50.51162 | -47.87803 | 35950 ft | 430 kts | 248° |
| 2026-05-08 18:11 | 50.49136 | -47.96612 | 35945 ft | 428 kts | 248° |
| 2026-05-08 18:12 | 50.47106 | -48.05401 | 35937 ft | 427 kts | 248° |
| 2026-05-08 18:12 | 50.45074 | -48.14163 | 35931 ft | 426 kts | 248° |
| 2026-05-08 18:13 | 50.43038 | -48.22907 | 35920 ft | 426 kts | 247° |
| 2026-05-08 18:13 | 50.40997 | -48.31637 | 35919 ft | 426 kts | 247° |
| 2026-05-08 18:14 | 50.38950 | -48.40355 | 35913 ft | 426 kts | 247° |
| 2026-05-08 18:14 | 50.36893 | -48.49083 | 35914 ft | 427 kts | 247° |
| 2026-05-08 18:15 | 50.34843 | -48.57749 | 35903 ft | 427 kts | 247° |
| 2026-05-08 18:15 | 50.32767 | -48.66483 | 35899 ft | 428 kts | 246° |
| 2026-05-08 18:16 | 50.30685 | -48.75210 | 35893 ft | 428 kts | 246° |
| 2026-05-08 18:16 | 50.28596 | -48.83936 | 35894 ft | 428 kts | 246° |
| 2026-05-08 18:17 | 50.26495 | -48.92671 | 35893 ft | 428 kts | 246° |
| 2026-05-08 18:17 | 50.24403 | -49.01335 | 35886 ft | 428 kts | 246° |
| 2026-05-08 18:18 | 50.22294 | -49.10036 | 35883 ft | 428 kts | 246° |
| 2026-05-08 18:18 | 50.20541 | -49.17244 | 35868 ft | 427 kts | 245° |
| 2026-05-08 18:19 | 50.18426 | -49.25908 | 35870 ft | 427 kts | 245° |
| 2026-05-08 18:19 | 50.16307 | -49.34552 | 35865 ft | 426 kts | 245° |
| 2026-05-08 18:20 | 50.14182 | -49.43188 | 35870 ft | 426 kts | 245° |
| 2026-05-08 18:20 | 50.12051 | -49.51815 | 35859 ft | 427 kts | 245° |
| 2026-05-08 18:21 | 50.09911 | -49.60446 | 35855 ft | 427 kts | 245° |
| 2026-05-08 18:21 | 50.07780 | -49.69006 | 35856 ft | 427 kts | 245° |
| 2026-05-08 18:22 | 50.05626 | -49.77626 | 35845 ft | 427 kts | 245° |
| 2026-05-08 18:22 | 50.03465 | -49.86244 | 35843 ft | 427 kts | 244° |
| 2026-05-08 18:23 | 50.01296 | -49.94868 | 35840 ft | 427 kts | 244° |
| 2026-05-08 18:23 | 49.99136 | -50.03484 | 35833 ft | 428 kts | 245° |
| 2026-05-08 18:24 | 49.97069 | -50.12092 | 35810 ft | 428 kts | 245° |
| 2026-05-08 18:24 | 49.94996 | -50.20777 | 35808 ft | 428 kts | 245° |
| 2026-05-08 18:25 | 49.92911 | -50.29441 | 35814 ft | 429 kts | 245° |
| 2026-05-08 18:25 | 49.90811 | -50.38106 | 35812 ft | 429 kts | 245° |
| 2026-05-08 18:26 | 49.88705 | -50.46755 | 35809 ft | 429 kts | 245° |
| 2026-05-08 18:26 | 49.86589 | -50.55407 | 35806 ft | 429 kts | 245° |
| 2026-05-08 18:27 | 49.84826 | -50.62590 | 35805 ft | 429 kts | 245° |
| 2026-05-08 18:27 | 49.82339 | -50.72687 | 35810 ft | 429 kts | 244° |
| 2026-05-08 18:28 | 49.80219 | -50.81254 | 35799 ft | 429 kts | 244° |
| 2026-05-08 18:28 | 49.78080 | -50.89871 | 35822 ft | 428 kts | 244° |
| 2026-05-08 18:29 | 49.75938 | -50.98463 | 35791 ft | 427 kts | 243° |
| 2026-05-08 18:29 | 49.73799 | -51.07010 | 35775 ft | 425 kts | 243° |
| 2026-05-08 18:30 | 49.71662 | -51.15520 | 35799 ft | 424 kts | 243° |
| 2026-05-08 18:30 | 49.69527 | -51.23982 | 35776 ft | 422 kts | 243° |
| 2026-05-08 18:31 | 49.67392 | -51.32418 | 35766 ft | 421 kts | 243° |
| 2026-05-08 18:31 | 49.65253 | -51.40838 | 35767 ft | 421 kts | 243° |
| 2026-05-08 18:32 | 49.63105 | -51.49259 | 35765 ft | 421 kts | 243° |
| 2026-05-08 18:32 | 49.60952 | -51.57668 | 35765 ft | 422 kts | 243° |
| 2026-05-08 18:33 | 49.58800 | -51.66047 | 35761 ft | 422 kts | 242° |
| 2026-05-08 18:33 | 49.56631 | -51.74459 | 35753 ft | 422 kts | 242° |
| 2026-05-08 18:34 | 49.54455 | -51.82871 | 35753 ft | 422 kts | 242° |
| 2026-05-08 18:34 | 49.52276 | -51.91270 | 35780 ft | 423 kts | 242° |
| 2026-05-08 18:35 | 49.50246 | -51.99784 | 35753 ft | 427 kts | 247° |
| 2026-05-08 18:35 | 49.49042 | -52.08798 | 35747 ft | 433 kts | 253° |
| 2026-05-08 18:36 | 49.48125 | -52.17881 | 35736 ft | 432 kts | 253° |
| 2026-05-08 18:36 | 49.47188 | -52.26996 | 35736 ft | 431 kts | 253° |
| 2026-05-08 18:37 | 49.46232 | -52.36109 | 35816 ft | 434 kts | 253° |
| 2026-05-08 18:37 | 49.45747 | -52.40690 | 36122 ft | 434 kts | 253° |
| 2026-05-08 18:37 | 49.45262 | -52.45261 | 36552 ft | 431 kts | 253° |
| 2026-05-08 18:38 | 49.44780 | -52.49797 | 37001 ft | 428 kts | 253° |
| 2026-05-08 18:38 | 49.44301 | -52.54288 | 37430 ft | 425 kts | 253° |
| 2026-05-08 18:38 | 49.43820 | -52.58770 | 37673 ft | 425 kts | 252° |
| 2026-05-08 18:38 | 49.43331 | -52.63270 | 37728 ft | 427 kts | 252° |
| 2026-05-08 18:39 | 49.42364 | -52.72178 | 37705 ft | 422 kts | 252° |
| 2026-05-08 18:39 | 49.41399 | -52.81023 | 37710 ft | 418 kts | 252° |
| 2026-05-08 18:40 | 49.40429 | -52.89816 | 37696 ft | 417 kts | 252° |
| 2026-05-08 18:40 | 49.39452 | -52.98597 | 37703 ft | 417 kts | 252° |
| 2026-05-08 18:41 | 49.38467 | -53.07395 | 37691 ft | 418 kts | 252° |
| 2026-05-08 18:41 | 49.37480 | -53.16156 | 37691 ft | 419 kts | 252° |
| 2026-05-08 18:42 | 49.36478 | -53.24989 | 37685 ft | 420 kts | 252° |
| 2026-05-08 18:42 | 49.35470 | -53.33824 | 37681 ft | 420 kts | 251° |
| 2026-05-08 18:43 | 49.34461 | -53.42619 | 37673 ft | 418 kts | 251° |
| 2026-05-08 18:43 | 49.33449 | -53.51361 | 37670 ft | 415 kts | 251° |
| 2026-05-08 18:44 | 49.32435 | -53.60056 | 37668 ft | 413 kts | 251° |
| 2026-05-08 18:44 | 49.31418 | -53.68714 | 37666 ft | 412 kts | 251° |
| 2026-05-08 18:45 | 49.30397 | -53.77349 | 37670 ft | 411 kts | 250° |
| 2026-05-08 18:45 | 49.29368 | -53.85986 | 37663 ft | 412 kts | 250° |
| 2026-05-08 18:46 | 49.28331 | -53.94637 | 37723 ft | 413 kts | 250° |
| 2026-05-08 18:46 | 49.27289 | -54.03258 | 37673 ft | 414 kts | 250° |
| 2026-05-08 18:47 | 49.26236 | -54.11943 | 37651 ft | 415 kts | 250° |
| 2026-05-08 18:47 | 49.25176 | -54.20623 | 37650 ft | 414 kts | 250° |
| 2026-05-08 18:48 | 49.24113 | -54.29277 | 37650 ft | 414 kts | 250° |
| 2026-05-08 18:48 | 49.23041 | -54.37935 | 37654 ft | 414 kts | 249° |
| 2026-05-08 18:49 | 49.21962 | -54.46591 | 37641 ft | 414 kts | 249° |
| 2026-05-08 18:49 | 49.20877 | -54.55240 | 37638 ft | 414 kts | 249° |
| 2026-05-08 18:50 | 49.19788 | -54.63878 | 37673 ft | 414 kts | 248° |
| 2026-05-08 18:50 | 49.18698 | -54.72457 | 37648 ft | 413 kts | 248° |
| 2026-05-08 18:51 | 49.17599 | -54.81067 | 37642 ft | 412 kts | 248° |
| 2026-05-08 18:51 | 49.16494 | -54.89663 | 37654 ft | 412 kts | 248° |
| 2026-05-08 18:52 | 49.15383 | -54.98243 | 37648 ft | 411 kts | 248° |
| 2026-05-08 18:52 | 49.14265 | -55.06829 | 37650 ft | 411 kts | 248° |
| 2026-05-08 18:53 | 49.13142 | -55.15393 | 37647 ft | 411 kts | 248° |
| 2026-05-08 18:53 | 49.12013 | -55.23958 | 37659 ft | 412 kts | 248° |
| 2026-05-08 18:54 | 49.10874 | -55.32544 | 37672 ft | 413 kts | 247° |
| 2026-05-08 18:54 | 49.09737 | -55.41076 | 37652 ft | 412 kts | 247° |
| 2026-05-08 18:55 | 49.08010 | -55.53931 | 37657 ft | 412 kts | 247° |
| 2026-05-08 18:56 | 49.06854 | -55.62479 | 37654 ft | 411 kts | 247° |
| 2026-05-08 18:56 | 49.05695 | -55.70991 | 37653 ft | 409 kts | 247° |
| 2026-05-08 18:57 | 49.04528 | -55.79498 | 37660 ft | 411 kts | 247° |
| 2026-05-08 18:57 | 49.03353 | -55.88019 | 37640 ft | 411 kts | 247° |
| 2026-05-08 18:58 | 49.02174 | -55.96529 | 37666 ft | 411 kts | 247° |
| 2026-05-08 18:58 | 49.00987 | -56.05041 | 37652 ft | 411 kts | 246° |
| 2026-05-08 18:59 | 48.99792 | -56.13566 | 37658 ft | 411 kts | 246° |
| 2026-05-08 18:59 | 48.98598 | -56.22033 | 37640 ft | 412 kts | 246° |
| 2026-05-08 19:00 | 48.97586 | -56.29175 | 37638 ft | 412 kts | 246° |
| 2026-05-08 19:00 | 48.96177 | -56.39069 | 37647 ft | 411 kts | 246° |
| 2026-05-08 19:01 | 48.94960 | -56.47554 | 37649 ft | 410 kts | 246° |
| 2026-05-08 19:01 | 48.93736 | -56.56039 | 37664 ft | 411 kts | 246° |
| 2026-05-08 19:02 | 48.92500 | -56.64548 | 37650 ft | 412 kts | 246° |
| 2026-05-08 19:02 | 48.91266 | -56.73008 | 37652 ft | 413 kts | 246° |
| 2026-05-08 19:03 | 48.90017 | -56.81529 | 37637 ft | 413 kts | 245° |
| 2026-05-08 19:03 | 48.88761 | -56.90050 | 37649 ft | 413 kts | 245° |
| 2026-05-08 19:04 | 48.87499 | -56.98568 | 37645 ft | 413 kts | 245° |
| 2026-05-08 19:04 | 48.86229 | -57.07090 | 37650 ft | 414 kts | 245° |
| 2026-05-08 19:05 | 48.84948 | -57.15626 | 37656 ft | 414 kts | 245° |
| 2026-05-08 19:05 | 48.83664 | -57.24154 | 37647 ft | 414 kts | 245° |
| 2026-05-08 19:06 | 48.82375 | -57.32664 | 37647 ft | 414 kts | 245° |
| 2026-05-08 19:06 | 48.81080 | -57.41167 | 37651 ft | 413 kts | 245° |
| 2026-05-08 19:07 | 48.79780 | -57.49663 | 37643 ft | 413 kts | 245° |
| 2026-05-08 19:07 | 48.78483 | -57.58083 | 37648 ft | 412 kts | 245° |
| 2026-05-08 19:08 | 48.77169 | -57.66562 | 37653 ft | 413 kts | 245° |
| 2026-05-08 19:08 | 48.76073 | -57.73611 | 37644 ft | 413 kts | 245° |
| 2026-05-08 19:09 | 48.74751 | -57.82073 | 37645 ft | 413 kts | 245° |
| 2026-05-08 19:09 | 48.73418 | -57.90559 | 37644 ft | 415 kts | 245° |
| 2026-05-08 19:10 | 48.72076 | -57.99062 | 37646 ft | 415 kts | 245° |
| 2026-05-08 19:10 | 48.70726 | -58.07563 | 37642 ft | 415 kts | 245° |
| 2026-05-08 19:11 | 48.69380 | -58.16012 | 37635 ft | 416 kts | 245° |
| 2026-05-08 19:11 | 48.68013 | -58.24528 | 37646 ft | 417 kts | 245° |
| 2026-05-08 19:12 | 48.66640 | -58.33047 | 37655 ft | 417 kts | 245° |
| 2026-05-08 19:12 | 48.65259 | -58.41576 | 37658 ft | 417 kts | 245° |
| 2026-05-08 19:13 | 48.63870 | -58.50104 | 37667 ft | 417 kts | 245° |
| 2026-05-08 19:13 | 48.62467 | -58.58666 | 37663 ft | 420 kts | 245° |
| 2026-05-08 19:14 | 48.61068 | -58.67180 | 37657 ft | 420 kts | 245° |
| 2026-05-08 19:14 | 48.59651 | -58.75754 | 37667 ft | 421 kts | 245° |
| 2026-05-08 19:15 | 48.58221 | -58.84354 | 37677 ft | 422 kts | 245° |
| 2026-05-08 19:15 | 48.56783 | -58.92965 | 37678 ft | 423 kts | 245° |
| 2026-05-08 19:16 | 48.55338 | -59.01579 | 37684 ft | 423 kts | 245° |
| 2026-05-08 19:16 | 48.53884 | -59.10202 | 37681 ft | 424 kts | 245° |
| 2026-05-08 19:17 | 48.52420 | -59.18835 | 37691 ft | 426 kts | 246° |
| 2026-05-08 19:17 | 48.50952 | -59.27447 | 37715 ft | 428 kts | 246° |
| 2026-05-08 19:18 | 48.49461 | -59.36152 | 37696 ft | 429 kts | 246° |
| 2026-05-08 19:18 | 48.47960 | -59.44874 | 37687 ft | 430 kts | 246° |
| 2026-05-08 19:19 | 48.46451 | -59.53606 | 37690 ft | 431 kts | 246° |
| 2026-05-08 19:19 | 48.44935 | -59.62331 | 37684 ft | 431 kts | 246° |
| 2026-05-08 19:20 | 48.43410 | -59.71068 | 37685 ft | 431 kts | 246° |
| 2026-05-08 19:20 | 48.41880 | -59.79788 | 37735 ft | 431 kts | 246° |
| 2026-05-08 19:21 | 48.40335 | -59.88539 | 37689 ft | 432 kts | 246° |
| 2026-05-08 19:21 | 48.38786 | -59.97283 | 37692 ft | 433 kts | 246° |
| 2026-05-08 19:22 | 48.37226 | -60.06044 | 37695 ft | 433 kts | 246° |
| 2026-05-08 19:22 | 48.35659 | -60.14796 | 37696 ft | 434 kts | 246° |
| 2026-05-08 19:23 | 48.34086 | -60.23546 | 37700 ft | 434 kts | 246° |
| 2026-05-08 19:23 | 48.32504 | -60.32300 | 37710 ft | 434 kts | 246° |
| 2026-05-08 19:24 | 48.30925 | -60.40994 | 37751 ft | 434 kts | 247° |
| 2026-05-08 19:24 | 48.29324 | -60.49762 | 37709 ft | 436 kts | 247° |
| 2026-05-08 19:25 | 48.27713 | -60.58548 | 37699 ft | 436 kts | 247° |
| 2026-05-08 19:25 | 48.26096 | -60.67329 | 37702 ft | 436 kts | 247° |
| 2026-05-08 19:26 | 48.24474 | -60.76097 | 37704 ft | 436 kts | 246° |
| 2026-05-08 19:26 | 48.22843 | -60.84866 | 37730 ft | 436 kts | 247° |
| 2026-05-08 19:27 | 48.21206 | -60.93629 | 37715 ft | 437 kts | 247° |
| 2026-05-08 19:27 | 48.19559 | -61.02401 | 37755 ft | 437 kts | 247° |
| 2026-05-08 19:28 | 48.17898 | -61.11202 | 37714 ft | 439 kts | 247° |
| 2026-05-08 19:28 | 48.16241 | -61.19946 | 37703 ft | 439 kts | 247° |
| 2026-05-08 19:29 | 48.14565 | -61.28756 | 37704 ft | 439 kts | 247° |
| 2026-05-08 19:29 | 48.12881 | -61.37561 | 37711 ft | 440 kts | 247° |
| 2026-05-08 19:30 | 48.11189 | -61.46364 | 37706 ft | 440 kts | 247° |
| 2026-05-08 19:30 | 48.09493 | -61.55152 | 37710 ft | 440 kts | 247° |
| 2026-05-08 19:31 | 48.07798 | -61.63889 | 37756 ft | 440 kts | 247° |
| 2026-05-08 19:31 | 48.06081 | -61.72696 | 37719 ft | 442 kts | 247° |
| 2026-05-08 19:32 | 48.04353 | -61.81526 | 37706 ft | 443 kts | 247° |
| 2026-05-08 19:32 | 48.02615 | -61.90368 | 37716 ft | 444 kts | 248° |
| 2026-05-08 19:33 | 48.00866 | -61.99224 | 37715 ft | 445 kts | 248° |
| 2026-05-08 19:33 | 47.99102 | -62.08110 | 37708 ft | 447 kts | 248° |
| 2026-05-08 19:34 | 47.97329 | -62.17005 | 37702 ft | 448 kts | 248° |
| 2026-05-08 19:34 | 47.95547 | -62.25910 | 37749 ft | 448 kts | 248° |
| 2026-05-08 19:35 | 47.93752 | -62.34833 | 37714 ft | 449 kts | 248° |
| 2026-05-08 19:35 | 47.91948 | -62.43758 | 37713 ft | 449 kts | 248° |
| 2026-05-08 19:36 | 47.90150 | -62.52618 | 37708 ft | 449 kts | 248° |
| 2026-05-08 19:36 | 47.88335 | -62.61522 | 37706 ft | 448 kts | 248° |
| 2026-05-08 19:37 | 47.86516 | -62.70403 | 37707 ft | 448 kts | 248° |
| 2026-05-08 19:37 | 47.84694 | -62.79261 | 37705 ft | 447 kts | 248° |
| 2026-05-08 19:38 | 47.82866 | -62.88106 | 37728 ft | 448 kts | 248° |
| 2026-05-08 19:38 | 47.81028 | -62.96959 | 37716 ft | 448 kts | 248° |
| 2026-05-08 19:39 | 47.79182 | -63.05812 | 37711 ft | 448 kts | 248° |
| 2026-05-08 19:39 | 47.77330 | -63.14658 | 37713 ft | 448 kts | 248° |
| 2026-05-08 19:40 | 47.75471 | -63.23497 | 37715 ft | 448 kts | 248° |
| 2026-05-08 19:40 | 47.73602 | -63.32346 | 37711 ft | 448 kts | 248° |
| 2026-05-08 19:41 | 47.71742 | -63.41116 | 37713 ft | 448 kts | 248° |
| 2026-05-08 19:41 | 47.69858 | -63.49955 | 37712 ft | 449 kts | 248° |
| 2026-05-08 19:42 | 47.67967 | -63.58795 | 37716 ft | 449 kts | 248° |
| 2026-05-08 19:42 | 47.66068 | -63.67631 | 37715 ft | 450 kts | 248° |
| 2026-05-08 19:43 | 47.64161 | -63.76465 | 37715 ft | 450 kts | 248° |
| 2026-05-08 19:43 | 47.62247 | -63.85297 | 37712 ft | 450 kts | 248° |
| 2026-05-08 19:44 | 47.60323 | -63.94135 | 37711 ft | 450 kts | 248° |
| 2026-05-08 19:44 | 47.58394 | -64.02960 | 37736 ft | 450 kts | 248° |
| 2026-05-08 19:45 | 47.56451 | -64.11809 | 37720 ft | 452 kts | 248° |
| 2026-05-08 19:45 | 47.54501 | -64.20653 | 37701 ft | 452 kts | 248° |
| 2026-05-08 19:46 | 47.52554 | -64.29447 | 37716 ft | 453 kts | 248° |
| 2026-05-08 19:46 | 47.49593 | -64.42750 | 37708 ft | 454 kts | 248° |
| 2026-05-08 19:47 | 47.47610 | -64.51616 | 37720 ft | 454 kts | 248° |
| 2026-05-08 19:47 | 47.45618 | -64.60482 | 37722 ft | 454 kts | 248° |
| 2026-05-08 19:48 | 47.43617 | -64.69352 | 37719 ft | 455 kts | 248° |
| 2026-05-08 19:48 | 47.41619 | -64.78170 | 37713 ft | 456 kts | 248° |
| 2026-05-08 19:49 | 47.39598 | -64.87048 | 37703 ft | 456 kts | 248° |
| 2026-05-08 19:49 | 47.37573 | -64.95913 | 37709 ft | 456 kts | 248° |
| 2026-05-08 19:50 | 47.35543 | -65.04765 | 37710 ft | 455 kts | 248° |
| 2026-05-08 19:50 | 47.33506 | -65.13609 | 37704 ft | 455 kts | 248° |
| 2026-05-08 19:51 | 47.31474 | -65.22391 | 37744 ft | 455 kts | 249° |
| 2026-05-08 19:51 | 47.29425 | -65.31214 | 37720 ft | 455 kts | 249° |
| 2026-05-08 19:52 | 47.27367 | -65.40039 | 37708 ft | 455 kts | 248° |
| 2026-05-08 19:52 | 47.25305 | -65.48846 | 37716 ft | 455 kts | 249° |
| 2026-05-08 19:53 | 47.23239 | -65.57638 | 37710 ft | 454 kts | 249° |
| 2026-05-08 19:53 | 47.21166 | -65.66419 | 37711 ft | 454 kts | 249° |
| 2026-05-08 19:54 | 47.19086 | -65.75197 | 37718 ft | 454 kts | 249° |
| 2026-05-08 19:54 | 47.16998 | -65.83971 | 37722 ft | 455 kts | 249° |
| 2026-05-08 19:55 | 47.14913 | -65.92697 | 37716 ft | 455 kts | 249° |
| 2026-05-08 19:55 | 47.12809 | -66.01474 | 37717 ft | 455 kts | 249° |
| 2026-05-08 19:56 | 47.10695 | -66.10251 | 37720 ft | 455 kts | 249° |
| 2026-05-08 19:56 | 47.08935 | -66.17535 | 37720 ft | 455 kts | 249° |
| 2026-05-08 19:57 | 47.06812 | -66.26291 | 37721 ft | 456 kts | 249° |
| 2026-05-08 19:57 | 47.04679 | -66.35052 | 37713 ft | 456 kts | 249° |
| 2026-05-08 19:58 | 47.02538 | -66.43808 | 37719 ft | 456 kts | 249° |
| 2026-05-08 19:58 | 47.00391 | -66.52559 | 37724 ft | 456 kts | 249° |
| 2026-05-08 19:59 | 46.98234 | -66.61315 | 37719 ft | 456 kts | 249° |
| 2026-05-08 19:59 | 46.96089 | -66.69987 | 37720 ft | 456 kts | 249° |
| 2026-05-08 20:00 | 46.93923 | -66.78716 | 37731 ft | 456 kts | 249° |
| 2026-05-08 20:00 | 46.91750 | -66.87438 | 37726 ft | 456 kts | 249° |
| 2026-05-08 20:01 | 46.89572 | -66.96151 | 37740 ft | 456 kts | 249° |
| 2026-05-08 20:01 | 46.87783 | -67.05036 | 37746 ft | 457 kts | 257° |
| 2026-05-08 20:02 | 46.87003 | -67.14254 | 37736 ft | 459 kts | 265° |
| 2026-05-08 20:02 | 46.86711 | -67.23567 | 37747 ft | 459 kts | 265° |
| 2026-05-08 20:03 | 46.86431 | -67.32835 | 37746 ft | 459 kts | 265° |
| 2026-05-08 20:03 | 46.86119 | -67.42210 | 37775 ft | 459 kts | 265° |
| 2026-05-08 20:04 | 46.85787 | -67.51527 | 37755 ft | 459 kts | 265° |
| 2026-05-08 20:04 | 46.85445 | -67.60785 | 37750 ft | 459 kts | 265° |
| 2026-05-08 20:05 | 46.85094 | -67.70097 | 37748 ft | 459 kts | 265° |
| 2026-05-08 20:05 | 46.84736 | -67.79393 | 37750 ft | 458 kts | 265° |
| 2026-05-08 20:06 | 46.84372 | -67.88678 | 37762 ft | 458 kts | 265° |
| 2026-05-08 20:06 | 46.84001 | -67.97955 | 37747 ft | 457 kts | 265° |
| 2026-05-08 20:07 | 46.83622 | -68.07225 | 37752 ft | 457 kts | 265° |
| 2026-05-08 20:07 | 46.83237 | -68.16483 | 37756 ft | 457 kts | 265° |
| 2026-05-08 20:08 | 46.82843 | -68.25735 | 37765 ft | 457 kts | 265° |
| 2026-05-08 20:08 | 46.82443 | -68.34994 | 37772 ft | 457 kts | 265° |
| 2026-05-08 20:09 | 46.82035 | -68.44257 | 37768 ft | 457 kts | 265° |
| 2026-05-08 20:09 | 46.81618 | -68.53524 | 37747 ft | 457 kts | 265° |
| 2026-05-08 20:10 | 46.81195 | -68.62783 | 37761 ft | 457 kts | 265° |
| 2026-05-08 20:10 | 46.80763 | -68.72043 | 37766 ft | 457 kts | 265° |
| 2026-05-08 20:11 | 46.80325 | -68.81298 | 37755 ft | 457 kts | 265° |
| 2026-05-08 20:11 | 46.79880 | -68.90539 | 37777 ft | 457 kts | 265° |
| 2026-05-08 20:12 | 46.79427 | -68.99796 | 37773 ft | 457 kts | 265° |
| 2026-05-08 20:12 | 46.78967 | -69.09044 | 37778 ft | 457 kts | 265° |
| 2026-05-08 20:13 | 46.78501 | -69.18234 | 37779 ft | 457 kts | 265° |
| 2026-05-08 20:13 | 46.78026 | -69.27482 | 37791 ft | 457 kts | 265° |
| 2026-05-08 20:14 | 46.77543 | -69.36731 | 37778 ft | 457 kts | 265° |
| 2026-05-08 20:14 | 46.77052 | -69.45981 | 37781 ft | 456 kts | 265° |
| 2026-05-08 20:15 | 46.76556 | -69.55201 | 37785 ft | 456 kts | 265° |
| 2026-05-08 20:15 | 46.76052 | -69.64410 | 37784 ft | 455 kts | 265° |
| 2026-05-08 20:16 | 46.75541 | -69.73615 | 37802 ft | 455 kts | 265° |
| 2026-05-08 20:16 | 46.75024 | -69.82809 | 37796 ft | 454 kts | 265° |
| 2026-05-08 20:17 | 46.74503 | -69.91932 | 37798 ft | 454 kts | 265° |
| 2026-05-08 20:17 | 46.73972 | -70.01096 | 37798 ft | 454 kts | 264° |
| 2026-05-08 20:18 | 46.73434 | -70.10261 | 37794 ft | 454 kts | 264° |
| 2026-05-08 20:18 | 46.72889 | -70.19415 | 37810 ft | 453 kts | 264° |
| 2026-05-08 20:19 | 46.72336 | -70.28573 | 37802 ft | 453 kts | 264° |
| 2026-05-08 20:19 | 46.71777 | -70.37719 | 37790 ft | 453 kts | 264° |
| 2026-05-08 20:20 | 46.71211 | -70.46853 | 37799 ft | 452 kts | 264° |
| 2026-05-08 20:20 | 46.70638 | -70.55983 | 37810 ft | 452 kts | 264° |
| 2026-05-08 20:21 | 46.70057 | -70.65117 | 37816 ft | 452 kts | 264° |
| 2026-05-08 20:21 | 46.69469 | -70.74243 | 37817 ft | 452 kts | 264° |
| 2026-05-08 20:22 | 46.68875 | -70.83367 | 37823 ft | 452 kts | 264° |
| 2026-05-08 20:22 | 46.68379 | -70.90888 | 37813 ft | 444 kts | 264° |
| 2026-05-08 20:23 | 46.67690 | -71.01211 | 37818 ft | 439 kts | 264° |
| 2026-05-08 20:23 | 46.67094 | -71.10040 | 37823 ft | 437 kts | 264° |
| 2026-05-08 20:24 | 46.66491 | -71.18856 | 37823 ft | 437 kts | 264° |
| 2026-05-08 20:24 | 46.65885 | -71.27641 | 37821 ft | 436 kts | 264° |
| 2026-05-08 20:25 | 46.65271 | -71.36434 | 37835 ft | 437 kts | 264° |
| 2026-05-08 20:25 | 46.64715 | -71.40756 | 37825 ft | 436 kts | 251° |
| 2026-05-08 20:25 | 46.63428 | -71.44763 | 37835 ft | 440 kts | 239° |
| 2026-05-08 20:26 | 46.61491 | -71.48212 | 37829 ft | 443 kts | 227° |
| 2026-05-08 20:26 | 46.59264 | -71.51320 | 37842 ft | 445 kts | 227° |
| 2026-05-08 20:26 | 46.54800 | -71.57603 | 37843 ft | 449 kts | 227° |
| 2026-05-08 20:27 | 46.50460 | -71.63824 | 37826 ft | 452 kts | 228° |
| 2026-05-08 21:33 | 46.46807 | -71.69090 | 37855 ft | 451 kts | 228° |
| 2026-05-08 21:33 | 46.42374 | -71.75469 | 37853 ft | 448 kts | 228° |
| 2026-05-08 21:34 | 46.37956 | -71.81784 | 37720 ft | 444 kts | 227° |
| 2026-05-08 21:34 | 46.35735 | -71.84866 | 37255 ft | 440 kts | 227° |
| 2026-05-08 21:34 | 46.33520 | -71.87905 | 36773 ft | 437 kts | 227° |
| 2026-05-08 21:34 | 46.31322 | -71.90913 | 36335 ft | 433 kts | 227° |
| 2026-05-08 21:35 | 46.29154 | -71.93888 | 35907 ft | 428 kts | 227° |
| 2026-05-08 21:35 | 46.27031 | -71.96808 | 35498 ft | 424 kts | 227° |
| 2026-05-08 21:35 | 46.24903 | -71.99735 | 35097 ft | 420 kts | 228° |
| 2026-05-08 21:35 | 46.22795 | -72.02630 | 34695 ft | 416 kts | 228° |
| 2026-05-08 21:36 | 46.20706 | -72.05495 | 34301 ft | 412 kts | 228° |
| 2026-05-08 21:36 | 46.18628 | -72.08337 | 33898 ft | 409 kts | 228° |
| 2026-05-08 21:36 | 46.16574 | -72.11144 | 33421 ft | 405 kts | 229° |
| 2026-05-08 21:36 | 46.14536 | -72.13927 | 33006 ft | 401 kts | 229° |
| 2026-05-08 21:37 | 46.12526 | -72.16670 | 32581 ft | 396 kts | 229° |
| 2026-05-08 21:37 | 46.10528 | -72.19395 | 32162 ft | 393 kts | 229° |
| 2026-05-08 21:37 | 46.08551 | -72.22089 | 31724 ft | 390 kts | 229° |
| 2026-05-08 21:37 | 46.06590 | -72.24759 | 31310 ft | 386 kts | 229° |
| 2026-05-08 21:38 | 46.04641 | -72.27411 | 30904 ft | 383 kts | 229° |
| 2026-05-08 21:38 | 46.02734 | -72.30003 | 30508 ft | 380 kts | 229° |
| 2026-05-08 21:38 | 46.00821 | -72.32598 | 30148 ft | 376 kts | 229° |
| 2026-05-08 21:38 | 45.98928 | -72.35165 | 29757 ft | 372 kts | 230° |
| 2026-05-08 21:39 | 45.97053 | -72.37705 | 29312 ft | 368 kts | 230° |
| 2026-05-08 21:39 | 45.95290 | -72.40317 | 28815 ft | 361 kts | 237° |
| 2026-05-08 21:39 | 45.93886 | -72.43252 | 28299 ft | 353 kts | 245° |
| 2026-05-08 21:39 | 45.92784 | -72.46372 | 27816 ft | 349 kts | 248° |
| 2026-05-08 21:40 | 45.91671 | -72.49466 | 27335 ft | 348 kts | 246° |
| 2026-05-08 21:40 | 45.90528 | -72.52533 | 26902 ft | 347 kts | 246° |
| 2026-05-08 21:40 | 45.89385 | -72.55577 | 26456 ft | 345 kts | 246° |
| 2026-05-08 21:41 | 45.87119 | -72.61620 | 25598 ft | 342 kts | 246° |
| 2026-05-08 21:41 | 45.85997 | -72.64619 | 25189 ft | 340 kts | 245° |
| 2026-05-08 21:41 | 45.84878 | -72.67610 | 24773 ft | 339 kts | 246° |
| 2026-05-08 21:41 | 45.83787 | -72.70525 | 24529 ft | 333 kts | 245° |
| 2026-05-08 21:42 | 45.82702 | -72.73417 | 24347 ft | 325 kts | 245° |
| 2026-05-08 21:42 | 45.81644 | -72.76234 | 24190 ft | 317 kts | 245° |
| 2026-05-08 21:42 | 45.80607 | -72.78993 | 23925 ft | 312 kts | 245° |
| 2026-05-08 21:42 | 45.79575 | -72.81731 | 23578 ft | 311 kts | 245° |
| 2026-05-08 21:43 | 45.78544 | -72.84468 | 23138 ft | 312 kts | 245° |
| 2026-05-08 21:43 | 45.77513 | -72.87201 | 22731 ft | 310 kts | 245° |
| 2026-05-08 21:43 | 45.76493 | -72.89898 | 22438 ft | 306 kts | 245° |
| 2026-05-08 21:43 | 45.75487 | -72.92560 | 22091 ft | 303 kts | 245° |
| 2026-05-08 21:44 | 45.74486 | -72.95209 | 21696 ft | 302 kts | 245° |
| 2026-05-08 21:44 | 45.73485 | -72.97851 | 21374 ft | 299 kts | 245° |
| 2026-05-08 21:44 | 45.72504 | -73.00432 | 21241 ft | 290 kts | 245° |
| 2026-05-08 21:44 | 45.71626 | -73.02921 | 21080 ft | 277 kts | 255° |
| 2026-05-08 21:45 | 45.71362 | -73.05615 | 20808 ft | 268 kts | 274° |
| 2026-05-08 21:45 | 45.71693 | -73.08190 | 20493 ft | 266 kts | 288° |
| 2026-05-08 21:45 | 45.72488 | -73.10580 | 20110 ft | 268 kts | 302° |
| 2026-05-08 21:45 | 45.73739 | -73.12577 | 19734 ft | 273 kts | 318° |
| 2026-05-08 21:46 | 45.75392 | -73.13951 | 19373 ft | 279 kts | 336° |
| 2026-05-08 21:46 | 45.77313 | -73.14476 | 19017 ft | 286 kts | 355° |
| 2026-05-08 21:46 | 45.79301 | -73.14026 | 18672 ft | 293 kts | 14° |
| 2026-05-08 21:46 | 45.81157 | -73.12777 | 18348 ft | 298 kts | 31° |
| 2026-05-08 21:47 | 45.82635 | -73.10681 | 17932 ft | 302 kts | 52° |
| 2026-05-08 21:47 | 45.83553 | -73.07957 | 17528 ft | 306 kts | 72° |
| 2026-05-08 21:47 | 45.83996 | -73.04981 | 17216 ft | 304 kts | 81° |
| 2026-05-08 21:47 | 45.84278 | -73.01981 | 16924 ft | 302 kts | 82° |
| 2026-05-08 21:48 | 45.84542 | -72.99003 | 16601 ft | 300 kts | 82° |
| 2026-05-08 21:48 | 45.84814 | -72.96041 | 16313 ft | 299 kts | 82° |
| 2026-05-08 21:48 | 45.85090 | -72.93092 | 16004 ft | 296 kts | 83° |
| 2026-05-08 21:48 | 45.84974 | -72.90174 | 15591 ft | 295 kts | 108° |
| 2026-05-08 21:49 | 45.84103 | -72.87549 | 15248 ft | 290 kts | 129° |
| 2026-05-08 21:49 | 45.82729 | -72.85484 | 14966 ft | 284 kts | 147° |
| 2026-05-08 21:49 | 45.81030 | -72.84129 | 14659 ft | 277 kts | 165° |
| 2026-05-08 21:49 | 45.79170 | -72.83623 | 14334 ft | 269 kts | 184° |
| 2026-05-08 21:50 | 45.77349 | -72.84005 | 14027 ft | 262 kts | 203° |
| 2026-05-08 21:50 | 45.75754 | -72.85169 | 13727 ft | 255 kts | 221° |
| 2026-05-08 21:50 | 45.74476 | -72.86899 | 13437 ft | 251 kts | 232° |
| 2026-05-08 21:50 | 45.73462 | -72.88867 | 13128 ft | 248 kts | 243° |
| 2026-05-08 21:51 | 45.72927 | -72.91199 | 12777 ft | 244 kts | 263° |
| 2026-05-08 21:51 | 45.72731 | -72.93573 | 12485 ft | 242 kts | 263° |
| 2026-05-08 21:51 | 45.72511 | -72.95965 | 12163 ft | 242 kts | 263° |
| 2026-05-08 21:51 | 45.72283 | -72.98356 | 11830 ft | 243 kts | 263° |
| 2026-05-08 21:52 | 45.72054 | -73.00736 | 11618 ft | 239 kts | 263° |
| 2026-05-08 21:52 | 45.71911 | -73.03091 | 11209 ft | 238 kts | 276° |
| 2026-05-08 21:52 | 45.72465 | -73.05339 | 10752 ft | 244 kts | 302° |
| 2026-05-08 21:52 | 45.73632 | -73.07075 | 10581 ft | 242 kts | 322° |
| 2026-05-08 21:53 | 45.75182 | -73.08041 | 10249 ft | 248 kts | 347° |
| 2026-05-08 21:53 | 45.76913 | -73.07954 | 9963 ft | 254 kts | 13° |
| 2026-05-08 21:53 | 45.78473 | -73.06760 | 9651 ft | 259 kts | 41° |
| 2026-05-08 21:53 | 45.79542 | -73.04669 | 9226 ft | 265 kts | 66° |
| 2026-05-08 21:54 | 45.79927 | -73.02110 | 8812 ft | 264 kts | 83° |
| 2026-05-08 21:54 | 45.80156 | -72.99485 | 8427 ft | 267 kts | 82° |
| 2026-05-08 21:54 | 45.80405 | -72.96846 | 8174 ft | 266 kts | 82° |
| 2026-05-08 21:54 | 45.80651 | -72.94260 | 7974 ft | 262 kts | 82° |
| 2026-05-08 21:55 | 45.80581 | -72.91696 | 7608 ft | 258 kts | 110° |
| 2026-05-08 21:55 | 45.79686 | -72.89520 | 7274 ft | 253 kts | 139° |
| 2026-05-08 21:55 | 45.78253 | -72.88180 | 7008 ft | 243 kts | 164° |
| 2026-05-08 21:56 | 45.75082 | -72.88394 | 6452 ft | 228 kts | 212° |
| 2026-05-08 21:56 | 45.73870 | -72.89770 | 6189 ft | 221 kts | 231° |
| 2026-05-08 21:56 | 45.73013 | -72.91579 | 5837 ft | 218 kts | 249° |
| 2026-05-08 21:56 | 45.72707 | -72.93691 | 5505 ft | 217 kts | 264° |
| 2026-05-08 21:57 | 45.72523 | -72.95831 | 5217 ft | 216 kts | 262° |
| 2026-05-08 21:57 | 45.72320 | -72.97954 | 5003 ft | 214 kts | 262° |
| 2026-05-08 21:57 | 45.72121 | -73.00028 | 4927 ft | 208 kts | 262° |
| 2026-05-08 21:57 | 45.71928 | -73.02099 | 4882 ft | 210 kts | 266° |
| 2026-05-08 21:58 | 45.72175 | -73.04154 | 4882 ft | 216 kts | 294° |
| 2026-05-08 21:58 | 45.73081 | -73.05905 | 4886 ft | 223 kts | 316° |
| 2026-05-08 21:58 | 45.74456 | -73.06978 | 4873 ft | 230 kts | 342° |
| 2026-05-08 21:58 | 45.76066 | -73.06994 | 4864 ft | 238 kts | 12° |
| 2026-05-08 21:59 | 45.77517 | -73.05850 | 4870 ft | 243 kts | 43° |
| 2026-05-08 21:59 | 45.78409 | -73.03790 | 4880 ft | 248 kts | 74° |
| 2026-05-08 21:59 | 45.78682 | -73.01349 | 4894 ft | 252 kts | 83° |
| 2026-05-08 21:59 | 45.78912 | -72.98824 | 4880 ft | 257 kts | 82° |
| 2026-05-08 22:00 | 45.79153 | -72.96304 | 4881 ft | 254 kts | 82° |
| 2026-05-08 22:00 | 45.79346 | -72.93812 | 4860 ft | 249 kts | 92° |
| 2026-05-08 22:00 | 45.78872 | -72.91519 | 4883 ft | 244 kts | 128° |
| 2026-05-08 22:00 | 45.77631 | -72.89935 | 4887 ft | 239 kts | 160° |
| 2026-05-08 22:01 | 45.76037 | -72.89432 | 4889 ft | 234 kts | 187° |
| 2026-05-08 22:01 | 45.74514 | -72.90033 | 4877 ft | 223 kts | 215° |
| 2026-05-08 22:01 | 45.73396 | -72.91482 | 4878 ft | 215 kts | 235° |
| 2026-05-08 22:01 | 45.72741 | -72.93373 | 4869 ft | 213 kts | 259° |
| 2026-05-08 22:02 | 45.72542 | -72.95468 | 4884 ft | 214 kts | 263° |
| 2026-05-08 22:02 | 45.72347 | -72.97587 | 4897 ft | 216 kts | 262° |
| 2026-05-08 22:02 | 45.72142 | -72.99738 | 4882 ft | 219 kts | 262° |
| 2026-05-08 22:02 | 45.71938 | -73.01897 | 4872 ft | 216 kts | 264° |
| 2026-05-08 22:03 | 45.72123 | -73.03977 | 4876 ft | 214 kts | 291° |
| 2026-05-08 22:03 | 45.72973 | -73.05753 | 4879 ft | 222 kts | 313° |
| 2026-05-08 22:03 | 45.74308 | -73.06913 | 4875 ft | 232 kts | 340° |
| 2026-05-08 22:03 | 45.75943 | -73.07047 | 4868 ft | 242 kts | 8° |
| 2026-05-08 22:04 | 45.77462 | -73.05972 | 4872 ft | 250 kts | 40° |
| 2026-05-08 22:04 | 45.78387 | -73.03875 | 4876 ft | 253 kts | 74° |
| 2026-05-08 22:04 | 45.78666 | -73.01422 | 4876 ft | 249 kts | 83° |
| 2026-05-08 22:04 | 45.78895 | -72.98936 | 4885 ft | 252 kts | 82° |
| 2026-05-08 22:05 | 45.79130 | -72.96466 | 4886 ft | 255 kts | 82° |
| 2026-05-08 22:05 | 45.79338 | -72.93940 | 4872 ft | 254 kts | 90° |
| 2026-05-08 22:05 | 45.78902 | -72.91558 | 4874 ft | 246 kts | 127° |
| 2026-05-08 22:05 | 45.77682 | -72.89958 | 4874 ft | 236 kts | 159° |
| 2026-05-08 22:06 | 45.76129 | -72.89457 | 4895 ft | 227 kts | 187° |
| 2026-05-08 22:06 | 45.74625 | -72.89989 | 4885 ft | 222 kts | 212° |
| 2026-05-08 22:06 | 45.73458 | -72.91375 | 4888 ft | 218 kts | 233° |
| 2026-05-08 22:06 | 45.72763 | -72.93260 | 4874 ft | 215 kts | 259° |
| 2026-05-08 22:07 | 45.72574 | -72.95351 | 4887 ft | 212 kts | 263° |
| 2026-05-08 22:07 | 45.72374 | -72.97460 | 4890 ft | 215 kts | 262° |
| 2026-05-08 22:07 | 45.72165 | -72.99601 | 4883 ft | 218 kts | 262° |
| 2026-05-08 22:07 | 45.71955 | -73.01762 | 4872 ft | 219 kts | 263° |
| 2026-05-08 22:08 | 45.72074 | -73.03889 | 4872 ft | 217 kts | 289° |
| 2026-05-08 22:08 | 45.72909 | -73.05693 | 4881 ft | 221 kts | 313° |
| 2026-05-08 22:08 | 45.74208 | -73.06869 | 4873 ft | 230 kts | 338° |
| 2026-05-08 22:08 | 45.75839 | -73.07070 | 4864 ft | 239 kts | 7° |
| 2026-05-08 22:09 | 45.77365 | -73.06085 | 4865 ft | 247 kts | 38° |
| 2026-05-08 22:09 | 45.78353 | -73.04076 | 4872 ft | 251 kts | 71° |
| 2026-05-08 22:09 | 45.78659 | -73.01673 | 4875 ft | 249 kts | 83° |
| 2026-05-08 22:09 | 45.78885 | -72.99173 | 4889 ft | 255 kts | 82° |
| 2026-05-08 22:10 | 45.79125 | -72.96658 | 4885 ft | 254 kts | 82° |
| 2026-05-08 22:10 | 45.79344 | -72.94155 | 4868 ft | 251 kts | 88° |
| 2026-05-08 22:10 | 45.78986 | -72.91788 | 4874 ft | 241 kts | 124° |
| 2026-05-08 22:10 | 45.77825 | -72.90108 | 4890 ft | 239 kts | 155° |
| 2026-05-08 22:11 | 45.76254 | -72.89454 | 4887 ft | 234 kts | 183° |
| 2026-05-08 22:11 | 45.74710 | -72.89901 | 4876 ft | 223 kts | 211° |
| 2026-05-08 22:11 | 45.73534 | -72.91251 | 4878 ft | 214 kts | 233° |
| 2026-05-08 22:11 | 45.72804 | -72.93063 | 4871 ft | 210 kts | 256° |
| 2026-05-08 22:12 | 45.72590 | -72.95131 | 4891 ft | 213 kts | 263° |
| 2026-05-08 22:12 | 45.72391 | -72.97259 | 4893 ft | 217 kts | 262° |
| 2026-05-08 22:12 | 45.72184 | -72.99389 | 4877 ft | 216 kts | 262° |
| 2026-05-08 22:12 | 45.71978 | -73.01515 | 4875 ft | 215 kts | 262° |
| 2026-05-08 22:13 | 45.71762 | -73.03642 | 4801 ft | 216 kts | 262° |
| 2026-05-08 22:13 | 45.71540 | -73.05750 | 4771 ft | 212 kts | 261° |
| 2026-05-08 22:13 | 45.71323 | -73.07803 | 4738 ft | 213 kts | 261° |
| 2026-05-08 22:13 | 45.71100 | -73.09911 | 4680 ft | 215 kts | 261° |
| 2026-05-08 22:14 | 45.70874 | -73.12040 | 4613 ft | 217 kts | 261° |
| 2026-05-08 22:14 | 45.70560 | -73.14163 | 4518 ft | 218 kts | 256° |
| 2026-05-08 22:14 | 45.70180 | -73.16242 | 4427 ft | 214 kts | 255° |
| 2026-05-08 22:14 | 45.69801 | -73.18278 | 4351 ft | 211 kts | 256° |
| 2026-05-08 22:15 | 45.69425 | -73.20307 | 4265 ft | 210 kts | 256° |
| 2026-05-08 22:15 | 45.69049 | -73.22327 | 4198 ft | 209 kts | 256° |
| 2026-05-08 22:15 | 45.68678 | -73.24343 | 4122 ft | 210 kts | 256° |
| 2026-05-08 22:15 | 45.68307 | -73.26366 | 4038 ft | 210 kts | 256° |
| 2026-05-08 22:16 | 45.67936 | -73.28390 | 3970 ft | 211 kts | 256° |
| 2026-05-08 22:16 | 45.67563 | -73.30424 | 3886 ft | 212 kts | 256° |
| 2026-05-08 22:16 | 45.67316 | -73.31772 | 3852 ft | 212 kts | 256° |
| 2026-05-08 22:16 | 45.66942 | -73.33816 | 3755 ft | 213 kts | 256° |
| 2026-05-08 22:17 | 45.66566 | -73.35865 | 3677 ft | 212 kts | 256° |
| 2026-05-08 22:17 | 45.66193 | -73.37901 | 3601 ft | 211 kts | 256° |
| 2026-05-08 22:17 | 45.65703 | -73.40570 | 3500 ft | 209 kts | 256° |
| 2026-05-08 22:17 | 45.65454 | -73.41924 | 3463 ft | 209 kts | 256° |
| 2026-05-08 22:18 | 45.64964 | -73.44609 | 3337 ft | 212 kts | 256° |
| 2026-05-08 22:18 | 45.64711 | -73.45981 | 3277 ft | 212 kts | 255° |
| 2026-05-08 22:18 | 45.64216 | -73.48652 | 3168 ft | 209 kts | 256° |
| 2026-05-08 22:18 | 45.63966 | -73.50008 | 3112 ft | 208 kts | 256° |
| 2026-05-08 22:19 | 45.63598 | -73.52006 | 3048 ft | 207 kts | 255° |
| 2026-05-08 22:19 | 45.62972 | -73.53831 | 2994 ft | 207 kts | 231° |
| 2026-05-08 22:19 | 45.62018 | -73.55364 | 3002 ft | 213 kts | 231° |
| 2026-05-08 22:19 | 45.60990 | -73.56900 | 2996 ft | 214 kts | 227° |
| 2026-05-08 22:20 | 45.59919 | -73.58348 | 2983 ft | 207 kts | 226° |
| 2026-05-08 22:20 | 45.58915 | -73.59667 | 2988 ft | 183 kts | 226° |
| 2026-05-08 22:20 | 45.58015 | -73.60851 | 2791 ft | 169 kts | 226° |
| 2026-05-08 22:20 | 45.57186 | -73.61944 | 2588 ft | 158 kts | 226° |
| 2026-05-08 22:21 | 45.56406 | -73.62970 | 2350 ft | 144 kts | 227° |
| 2026-05-08 22:21 | 45.55720 | -73.63872 | 2080 ft | 127 kts | 227° |
| 2026-05-08 22:21 | 45.55091 | -73.64685 | 1896 ft | 113 kts | 230° |
| 2026-05-08 22:21 | 45.54483 | -73.65492 | 1784 ft | 122 kts | 227° |
| 2026-05-08 22:22 | 45.53867 | -73.66295 | 1655 ft | 124 kts | 226° |
| 2026-05-08 22:22 | 45.53242 | -73.67112 | 1493 ft | 122 kts | 229° |
| 2026-05-08 22:22 | 45.52622 | -73.67944 | 1352 ft | 124 kts | 228° |
| 2026-05-08 22:22 | 45.51974 | -73.68800 | 1195 ft | 130 kts | 227° |
| 2026-05-08 22:23 | 45.51313 | -73.69676 | 1011 ft | 130 kts | 227° |
| 2026-05-08 22:23 | 45.50661 | -73.70533 | 766 ft | 127 kts | 225° |
| 2026-05-08 22:23 | 45.49994 | -73.71405 | 642 ft | 131 kts | 224° |
| 2026-05-08 22:23 | 45.49344 | -73.72250 | 424 ft | 122 kts | 223° |
| 2026-05-08 22:24 | 45.48717 | -73.73083 | 299 ft | 125 kts | 223° |
| 2026-05-08 22:24 | 45.48072 | -73.73915 | 149 ft | 122 kts | 223° |
| 2026-05-08 22:24 | 45.47512 | -73.74656 | 119 ft | 98 kts | 223° |
| 2026-05-08 22:24 | 45.47130 | -73.75164 | 120 ft | 53 kts | 223° |
| 2026-05-08 22:25 | 45.46891 | -73.75468 | 117 ft | 36 kts | 218° |
| 2026-05-08 22:25 | 45.46688 | -73.75595 | 120 ft | 30 kts | 199° |
| 2026-05-08 22:25 | 45.46489 | -73.75664 | 121 ft | 29 kts | 193° |
| 2026-05-08 22:25 | 45.46401 | -73.75694 | 119 ft | 4 kts | 194° |
| 2026-05-08 22:26 | 45.46368 | -73.75707 | 118 ft | 6 kts | 196° |
| 2026-05-08 22:26 | 45.46335 | -73.75721 | 117 ft | 0 kts | 198° |
| 2026-05-08 22:26 | 45.46334 | -73.75721 | 117 ft | 1 kts | 197° |
| 2026-05-08 22:26 | 45.46308 | -73.75722 | 117 ft | 13 kts | 181° |
| 2026-05-08 22:27 | 45.46280 | -73.75722 | 116 ft | 0 kts | 178° |
| 2026-05-08 22:27 | 45.46205 | -73.75720 | 116 ft | 24 kts | 179° |
| 2026-05-08 22:28 | 45.46051 | -73.75710 | 113 ft | 19 kts | 157° |
| 2026-05-08 22:28 | 45.46024 | -73.75502 | 114 ft | 29 kts | 82° |
| 2026-05-08 22:28 | 45.46040 | -73.75336 | 115 ft | 0 kts | 87° |
| 2026-05-08 22:28 | 45.46040 | -73.75330 | 115 ft | 1 kts | 88° |
| 2026-05-08 22:29 | 45.46041 | -73.75292 | 113 ft | 11 kts | 87° |
| 2026-05-08 22:29 | 45.46047 | -73.75198 | 118 ft | 6 kts | 83° |
| 2026-05-08 22:29 | 45.46047 | -73.75163 | 118 ft | 4 kts | 105° |
| 2026-05-08 22:29 | 45.46021 | -73.75150 | 117 ft | 4 kts | 163° |
| 2026-05-08 22:30 | 45.45984 | -73.75137 | 115 ft | 7 kts | 173° |
| 2026-05-08 22:30 | 45.45957 | -73.75137 | 114 ft | 3 kts | 181° |
| 2026-05-08 22:30 | 45.45931 | -73.75137 | 114 ft | 1 kts | 181° |
| 2026-05-08 22:30 | 45.45926 | -73.75137 | 113 ft | 0 kts | 180° |